<?xml version="1.0" encoding="UTF-8" standalone="no" ?>
<gpx xmlns="http://www.topografix.com/GPX/1/1" xmlns:xsi="http://www.w3.org/2001/XMLSchema-instance" xsi:schemaLocation="http://www.topografix.com/GPX/1/1 http://www.topografix.com/GPX/1/1/gpx.xsd" version="1.1" creator="VisuGPX - https://www.visugpx.com">
  <metadata>
    <name>Reco raid régiment</name>
    <desc><![CDATA[Sortie niveau difficile]]></desc>
  </metadata>
  <trk>
    <name><![CDATA[Reco raid régiment_1]]></name>
    <trkseg>
      <trkpt lat="47.94123" lon="7.15887">
        <ele>397.639648</ele>
        <time>2014-06-05T07:58:42Z</time>
      </trkpt>
      <trkpt lat="47.94123" lon="7.15887">
        <ele>398.442444</ele>
        <time>2014-06-05T07:58:43Z</time>
      </trkpt>
      <trkpt lat="47.94127" lon="7.15874">
        <ele>401.140533</ele>
        <time>2014-06-05T07:59:30Z</time>
      </trkpt>
      <trkpt lat="47.9413" lon="7.15858">
        <ele>401.3</ele>
        <time>2014-06-05T07:59:33Z</time>
      </trkpt>
      <trkpt lat="47.94133" lon="7.15843">
        <ele>401.7</ele>
        <time>2014-06-05T07:59:36Z</time>
      </trkpt>
      <trkpt lat="47.94135" lon="7.15827">
        <ele>402.3</ele>
        <time>2014-06-05T07:59:39Z</time>
      </trkpt>
      <trkpt lat="47.94137" lon="7.1581">
        <ele>402.7</ele>
        <time>2014-06-05T07:59:42Z</time>
      </trkpt>
      <trkpt lat="47.94137" lon="7.15791">
        <ele>403.2</ele>
        <time>2014-06-05T07:59:45Z</time>
      </trkpt>
      <trkpt lat="47.94136" lon="7.15772">
        <ele>403.3</ele>
        <time>2014-06-05T07:59:48Z</time>
      </trkpt>
      <trkpt lat="47.94139" lon="7.15757">
        <ele>403.3</ele>
        <time>2014-06-05T07:59:51Z</time>
      </trkpt>
      <trkpt lat="47.94141" lon="7.15743">
        <ele>403.6</ele>
        <time>2014-06-05T07:59:54Z</time>
      </trkpt>
      <trkpt lat="47.94143" lon="7.15723">
        <ele>403.7</ele>
        <time>2014-06-05T07:59:57Z</time>
      </trkpt>
      <trkpt lat="47.94146" lon="7.1571">
        <ele>404.3</ele>
        <time>2014-06-05T08:00:00Z</time>
      </trkpt>
      <trkpt lat="47.94142" lon="7.15727">
        <ele>405.2</ele>
        <time>2014-06-05T08:00:14Z</time>
      </trkpt>
      <trkpt lat="47.94139" lon="7.15741">
        <ele>405</ele>
        <time>2014-06-05T08:00:17Z</time>
      </trkpt>
      <trkpt lat="47.94136" lon="7.15754">
        <ele>404.9</ele>
        <time>2014-06-05T08:00:20Z</time>
      </trkpt>
      <trkpt lat="47.94135" lon="7.15768">
        <ele>404.9</ele>
        <time>2014-06-05T08:00:23Z</time>
      </trkpt>
      <trkpt lat="47.94135" lon="7.15782">
        <ele>404.7</ele>
        <time>2014-06-05T08:00:26Z</time>
      </trkpt>
      <trkpt lat="47.94136" lon="7.15796">
        <ele>404.7</ele>
        <time>2014-06-05T08:00:29Z</time>
      </trkpt>
      <trkpt lat="47.94136" lon="7.15813">
        <ele>404.6</ele>
        <time>2014-06-05T08:00:32Z</time>
      </trkpt>
      <trkpt lat="47.94134" lon="7.15826">
        <ele>404.6</ele>
        <time>2014-06-05T08:00:35Z</time>
      </trkpt>
      <trkpt lat="47.94131" lon="7.15843">
        <ele>404.4</ele>
        <time>2014-06-05T08:00:39Z</time>
      </trkpt>
      <trkpt lat="47.94128" lon="7.15858">
        <ele>404</ele>
        <time>2014-06-05T08:00:43Z</time>
      </trkpt>
      <trkpt lat="47.94118" lon="7.15857">
        <ele>403.7</ele>
        <time>2014-06-05T08:00:47Z</time>
      </trkpt>
      <trkpt lat="47.94107" lon="7.15852">
        <ele>403.5</ele>
        <time>2014-06-05T08:00:50Z</time>
      </trkpt>
      <trkpt lat="47.94096" lon="7.15846">
        <ele>403.3</ele>
        <time>2014-06-05T08:00:53Z</time>
      </trkpt>
      <trkpt lat="47.94085" lon="7.15839">
        <ele>402.9</ele>
        <time>2014-06-05T08:00:56Z</time>
      </trkpt>
      <trkpt lat="47.94073" lon="7.15833">
        <ele>402.7</ele>
        <time>2014-06-05T08:00:59Z</time>
      </trkpt>
      <trkpt lat="47.94064" lon="7.15827">
        <ele>402.4</ele>
        <time>2014-06-05T08:01:01Z</time>
      </trkpt>
      <trkpt lat="47.94053" lon="7.15823">
        <ele>402.3</ele>
        <time>2014-06-05T08:01:03Z</time>
      </trkpt>
      <trkpt lat="47.94042" lon="7.15817">
        <ele>402</ele>
        <time>2014-06-05T08:01:06Z</time>
      </trkpt>
      <trkpt lat="47.9405" lon="7.15809">
        <ele>401.7</ele>
        <time>2014-06-05T08:01:29Z</time>
      </trkpt>
      <trkpt lat="47.94053" lon="7.15794">
        <ele>402</ele>
        <time>2014-06-05T08:01:35Z</time>
      </trkpt>
      <trkpt lat="47.94055" lon="7.15797">
        <ele>401.7</ele>
        <time>2014-06-05T08:01:56Z</time>
      </trkpt>
      <trkpt lat="47.94051" lon="7.15811">
        <ele>399.2</ele>
        <time>2014-06-05T08:02:39Z</time>
      </trkpt>
      <trkpt lat="47.94035" lon="7.15803">
        <ele>398.7</ele>
        <time>2014-06-05T08:02:47Z</time>
      </trkpt>
      <trkpt lat="47.94026" lon="7.15796">
        <ele>398.6</ele>
        <time>2014-06-05T08:02:50Z</time>
      </trkpt>
      <trkpt lat="47.94016" lon="7.15801">
        <ele>398.3</ele>
        <time>2014-06-05T08:02:52Z</time>
      </trkpt>
      <trkpt lat="47.94008" lon="7.15814">
        <ele>398</ele>
        <time>2014-06-05T08:02:54Z</time>
      </trkpt>
      <trkpt lat="47.94002" lon="7.15824">
        <ele>398.3</ele>
        <time>2014-06-05T08:02:56Z</time>
      </trkpt>
      <trkpt lat="47.93991" lon="7.15832">
        <ele>398.4</ele>
        <time>2014-06-05T08:02:59Z</time>
      </trkpt>
      <trkpt lat="47.93984" lon="7.15821">
        <ele>398.4</ele>
        <time>2014-06-05T08:03:02Z</time>
      </trkpt>
      <trkpt lat="47.93975" lon="7.15817">
        <ele>398.8</ele>
        <time>2014-06-05T08:03:06Z</time>
      </trkpt>
      <trkpt lat="47.93968" lon="7.1583">
        <ele>398.7</ele>
        <time>2014-06-05T08:03:09Z</time>
      </trkpt>
      <trkpt lat="47.9396" lon="7.15846">
        <ele>398.7</ele>
        <time>2014-06-05T08:03:12Z</time>
      </trkpt>
      <trkpt lat="47.93954" lon="7.15861">
        <ele>398.8</ele>
        <time>2014-06-05T08:03:15Z</time>
      </trkpt>
      <trkpt lat="47.93949" lon="7.15877">
        <ele>398.4</ele>
        <time>2014-06-05T08:03:18Z</time>
      </trkpt>
      <trkpt lat="47.93946" lon="7.15896">
        <ele>398.4</ele>
        <time>2014-06-05T08:03:21Z</time>
      </trkpt>
      <trkpt lat="47.93944" lon="7.15911">
        <ele>398.5</ele>
        <time>2014-06-05T08:03:23Z</time>
      </trkpt>
      <trkpt lat="47.93942" lon="7.15925">
        <ele>398.4</ele>
        <time>2014-06-05T08:03:25Z</time>
      </trkpt>
      <trkpt lat="47.9394" lon="7.15939">
        <ele>398.2</ele>
        <time>2014-06-05T08:03:27Z</time>
      </trkpt>
      <trkpt lat="47.93937" lon="7.15953">
        <ele>397.9</ele>
        <time>2014-06-05T08:03:29Z</time>
      </trkpt>
      <trkpt lat="47.93935" lon="7.15968">
        <ele>397.8</ele>
        <time>2014-06-05T08:03:31Z</time>
      </trkpt>
      <trkpt lat="47.93932" lon="7.15982">
        <ele>397.8</ele>
        <time>2014-06-05T08:03:33Z</time>
      </trkpt>
      <trkpt lat="47.9393" lon="7.15996">
        <ele>397.4</ele>
        <time>2014-06-05T08:03:35Z</time>
      </trkpt>
      <trkpt lat="47.93927" lon="7.16009">
        <ele>397.1</ele>
        <time>2014-06-05T08:03:37Z</time>
      </trkpt>
      <trkpt lat="47.93924" lon="7.16022">
        <ele>397.1</ele>
        <time>2014-06-05T08:03:39Z</time>
      </trkpt>
      <trkpt lat="47.93919" lon="7.16041">
        <ele>397</ele>
        <time>2014-06-05T08:03:42Z</time>
      </trkpt>
      <trkpt lat="47.93916" lon="7.16069">
        <ele>396.2</ele>
        <time>2014-06-05T08:03:46Z</time>
      </trkpt>
      <trkpt lat="47.93917" lon="7.16084">
        <ele>396</ele>
        <time>2014-06-05T08:03:48Z</time>
      </trkpt>
      <trkpt lat="47.93919" lon="7.16099">
        <ele>395.8</ele>
        <time>2014-06-05T08:03:50Z</time>
      </trkpt>
      <trkpt lat="47.9392" lon="7.16112">
        <ele>395.7</ele>
        <time>2014-06-05T08:03:52Z</time>
      </trkpt>
      <trkpt lat="47.93918" lon="7.16127">
        <ele>395.5</ele>
        <time>2014-06-05T08:03:54Z</time>
      </trkpt>
      <trkpt lat="47.93913" lon="7.16142">
        <ele>395.5</ele>
        <time>2014-06-05T08:03:56Z</time>
      </trkpt>
      <trkpt lat="47.93908" lon="7.16157">
        <ele>395.3</ele>
        <time>2014-06-05T08:03:58Z</time>
      </trkpt>
      <trkpt lat="47.93902" lon="7.16171">
        <ele>395.1</ele>
        <time>2014-06-05T08:04:00Z</time>
      </trkpt>
      <trkpt lat="47.93896" lon="7.16186">
        <ele>394.6</ele>
        <time>2014-06-05T08:04:02Z</time>
      </trkpt>
      <trkpt lat="47.93891" lon="7.16202">
        <ele>394.5</ele>
        <time>2014-06-05T08:04:04Z</time>
      </trkpt>
      <trkpt lat="47.93886" lon="7.16217">
        <ele>394.3</ele>
        <time>2014-06-05T08:04:06Z</time>
      </trkpt>
      <trkpt lat="47.93881" lon="7.16233">
        <ele>394.3</ele>
        <time>2014-06-05T08:04:08Z</time>
      </trkpt>
      <trkpt lat="47.93875" lon="7.16247">
        <ele>394.4</ele>
        <time>2014-06-05T08:04:10Z</time>
      </trkpt>
      <trkpt lat="47.93869" lon="7.1626">
        <ele>394.3</ele>
        <time>2014-06-05T08:04:12Z</time>
      </trkpt>
      <trkpt lat="47.93859" lon="7.16273">
        <ele>394</ele>
        <time>2014-06-05T08:04:15Z</time>
      </trkpt>
      <trkpt lat="47.93847" lon="7.16277">
        <ele>393.8</ele>
        <time>2014-06-05T08:04:18Z</time>
      </trkpt>
      <trkpt lat="47.93837" lon="7.1628">
        <ele>393.9</ele>
        <time>2014-06-05T08:04:21Z</time>
      </trkpt>
      <trkpt lat="47.93828" lon="7.16283">
        <ele>394.5</ele>
        <time>2014-06-05T08:04:25Z</time>
      </trkpt>
      <trkpt lat="47.93818" lon="7.16286">
        <ele>395</ele>
        <time>2014-06-05T08:04:28Z</time>
      </trkpt>
      <trkpt lat="47.93809" lon="7.1629">
        <ele>395.6</ele>
        <time>2014-06-05T08:04:31Z</time>
      </trkpt>
      <trkpt lat="47.938" lon="7.16294">
        <ele>396.1</ele>
        <time>2014-06-05T08:04:34Z</time>
      </trkpt>
      <trkpt lat="47.9379" lon="7.16299">
        <ele>396.7</ele>
        <time>2014-06-05T08:04:37Z</time>
      </trkpt>
      <trkpt lat="47.9378" lon="7.16304">
        <ele>397.4</ele>
        <time>2014-06-05T08:04:40Z</time>
      </trkpt>
      <trkpt lat="47.93772" lon="7.16314">
        <ele>397.9</ele>
        <time>2014-06-05T08:04:44Z</time>
      </trkpt>
      <trkpt lat="47.93761" lon="7.1634">
        <ele>399.2</ele>
        <time>2014-06-05T08:05:03Z</time>
      </trkpt>
      <trkpt lat="47.93754" lon="7.16348">
        <ele>399.8</ele>
        <time>2014-06-05T08:05:08Z</time>
      </trkpt>
      <trkpt lat="47.93747" lon="7.16359">
        <ele>401</ele>
        <time>2014-06-05T08:05:14Z</time>
      </trkpt>
      <trkpt lat="47.93744" lon="7.16374">
        <ele>401.9</ele>
        <time>2014-06-05T08:05:18Z</time>
      </trkpt>
      <trkpt lat="47.93741" lon="7.16388">
        <ele>402.9</ele>
        <time>2014-06-05T08:05:22Z</time>
      </trkpt>
      <trkpt lat="47.93739" lon="7.16402">
        <ele>403.7</ele>
        <time>2014-06-05T08:05:26Z</time>
      </trkpt>
      <trkpt lat="47.93736" lon="7.16418">
        <ele>404.8</ele>
        <time>2014-06-05T08:05:31Z</time>
      </trkpt>
      <trkpt lat="47.93737" lon="7.16435">
        <ele>405.4</ele>
        <time>2014-06-05T08:05:35Z</time>
      </trkpt>
      <trkpt lat="47.93735" lon="7.16452">
        <ele>405.9</ele>
        <time>2014-06-05T08:05:39Z</time>
      </trkpt>
      <trkpt lat="47.93734" lon="7.16467">
        <ele>406.1</ele>
        <time>2014-06-05T08:05:42Z</time>
      </trkpt>
      <trkpt lat="47.93732" lon="7.16483">
        <ele>406.5</ele>
        <time>2014-06-05T08:05:45Z</time>
      </trkpt>
      <trkpt lat="47.93729" lon="7.16515">
        <ele>407.5</ele>
        <time>2014-06-05T08:05:51Z</time>
      </trkpt>
      <trkpt lat="47.93728" lon="7.16529">
        <ele>407.9</ele>
        <time>2014-06-05T08:05:54Z</time>
      </trkpt>
      <trkpt lat="47.93726" lon="7.16543">
        <ele>408.2</ele>
        <time>2014-06-05T08:05:57Z</time>
      </trkpt>
      <trkpt lat="47.93725" lon="7.16556">
        <ele>408</ele>
        <time>2014-06-05T08:06:00Z</time>
      </trkpt>
      <trkpt lat="47.93722" lon="7.1657">
        <ele>408.5</ele>
        <time>2014-06-05T08:06:03Z</time>
      </trkpt>
      <trkpt lat="47.93722" lon="7.16584">
        <ele>409.2</ele>
        <time>2014-06-05T08:06:06Z</time>
      </trkpt>
      <trkpt lat="47.93725" lon="7.16598">
        <ele>409.3</ele>
        <time>2014-06-05T08:06:09Z</time>
      </trkpt>
      <trkpt lat="47.93726" lon="7.16613">
        <ele>409.3</ele>
        <time>2014-06-05T08:06:12Z</time>
      </trkpt>
      <trkpt lat="47.93727" lon="7.16629">
        <ele>409.5</ele>
        <time>2014-06-05T08:06:16Z</time>
      </trkpt>
      <trkpt lat="47.9373" lon="7.16642">
        <ele>410.1</ele>
        <time>2014-06-05T08:06:19Z</time>
      </trkpt>
      <trkpt lat="47.9373" lon="7.16657">
        <ele>410.5</ele>
        <time>2014-06-05T08:06:22Z</time>
      </trkpt>
      <trkpt lat="47.9373" lon="7.16672">
        <ele>411.2</ele>
        <time>2014-06-05T08:06:25Z</time>
      </trkpt>
      <trkpt lat="47.93727" lon="7.16686">
        <ele>411.8</ele>
        <time>2014-06-05T08:06:28Z</time>
      </trkpt>
      <trkpt lat="47.9372" lon="7.16699">
        <ele>412.1</ele>
        <time>2014-06-05T08:06:31Z</time>
      </trkpt>
      <trkpt lat="47.93716" lon="7.16712">
        <ele>412.2</ele>
        <time>2014-06-05T08:06:34Z</time>
      </trkpt>
      <trkpt lat="47.93715" lon="7.16727">
        <ele>412.6</ele>
        <time>2014-06-05T08:06:37Z</time>
      </trkpt>
      <trkpt lat="47.93714" lon="7.16741">
        <ele>413.1</ele>
        <time>2014-06-05T08:06:40Z</time>
      </trkpt>
      <trkpt lat="47.93711" lon="7.16754">
        <ele>413.3</ele>
        <time>2014-06-05T08:06:43Z</time>
      </trkpt>
      <trkpt lat="47.93706" lon="7.16768">
        <ele>413.4</ele>
        <time>2014-06-05T08:06:46Z</time>
      </trkpt>
      <trkpt lat="47.937" lon="7.16797">
        <ele>413.9</ele>
        <time>2014-06-05T08:06:51Z</time>
      </trkpt>
      <trkpt lat="47.93696" lon="7.16812">
        <ele>414.3</ele>
        <time>2014-06-05T08:06:54Z</time>
      </trkpt>
      <trkpt lat="47.93691" lon="7.16826">
        <ele>415</ele>
        <time>2014-06-05T08:06:57Z</time>
      </trkpt>
      <trkpt lat="47.93687" lon="7.1684">
        <ele>415.6</ele>
        <time>2014-06-05T08:07:00Z</time>
      </trkpt>
      <trkpt lat="47.93683" lon="7.16855">
        <ele>416.3</ele>
        <time>2014-06-05T08:07:03Z</time>
      </trkpt>
      <trkpt lat="47.9368" lon="7.16869">
        <ele>416.8</ele>
        <time>2014-06-05T08:07:06Z</time>
      </trkpt>
      <trkpt lat="47.93678" lon="7.16885">
        <ele>417.3</ele>
        <time>2014-06-05T08:07:09Z</time>
      </trkpt>
      <trkpt lat="47.93675" lon="7.16903">
        <ele>417.5</ele>
        <time>2014-06-05T08:07:12Z</time>
      </trkpt>
      <trkpt lat="47.93671" lon="7.16921">
        <ele>417.8</ele>
        <time>2014-06-05T08:07:15Z</time>
      </trkpt>
      <trkpt lat="47.93665" lon="7.16938">
        <ele>418</ele>
        <time>2014-06-05T08:07:18Z</time>
      </trkpt>
      <trkpt lat="47.93659" lon="7.16954">
        <ele>417.6</ele>
        <time>2014-06-05T08:07:21Z</time>
      </trkpt>
      <trkpt lat="47.93647" lon="7.16953">
        <ele>417</ele>
        <time>2014-06-05T08:07:26Z</time>
      </trkpt>
      <trkpt lat="47.93638" lon="7.16947">
        <ele>416.6</ele>
        <time>2014-06-05T08:07:30Z</time>
      </trkpt>
      <trkpt lat="47.93628" lon="7.16941">
        <ele>415.9</ele>
        <time>2014-06-05T08:07:35Z</time>
      </trkpt>
      <trkpt lat="47.93616" lon="7.16931">
        <ele>414.9</ele>
        <time>2014-06-05T08:07:38Z</time>
      </trkpt>
      <trkpt lat="47.93607" lon="7.16923">
        <ele>414.8</ele>
        <time>2014-06-05T08:07:40Z</time>
      </trkpt>
      <trkpt lat="47.93599" lon="7.16912">
        <ele>414.1</ele>
        <time>2014-06-05T08:07:43Z</time>
      </trkpt>
      <trkpt lat="47.93589" lon="7.16908">
        <ele>413.2</ele>
        <time>2014-06-05T08:07:47Z</time>
      </trkpt>
      <trkpt lat="47.93559" lon="7.16896">
        <ele>408.1</ele>
        <time>2014-06-05T08:10:44Z</time>
      </trkpt>
      <trkpt lat="47.93548" lon="7.1689">
        <ele>408</ele>
        <time>2014-06-05T08:10:48Z</time>
      </trkpt>
      <trkpt lat="47.93537" lon="7.16885">
        <ele>408</ele>
        <time>2014-06-05T08:10:51Z</time>
      </trkpt>
      <trkpt lat="47.93526" lon="7.16884">
        <ele>407</ele>
        <time>2014-06-05T08:10:54Z</time>
      </trkpt>
      <trkpt lat="47.93513" lon="7.16888">
        <ele>406.4</ele>
        <time>2014-06-05T08:10:57Z</time>
      </trkpt>
      <trkpt lat="47.93502" lon="7.16889">
        <ele>405.8</ele>
        <time>2014-06-05T08:11:01Z</time>
      </trkpt>
      <trkpt lat="47.93492" lon="7.16895">
        <ele>406</ele>
        <time>2014-06-05T08:11:05Z</time>
      </trkpt>
      <trkpt lat="47.93495" lon="7.16908">
        <ele>405.3</ele>
        <time>2014-06-05T08:11:09Z</time>
      </trkpt>
      <trkpt lat="47.93503" lon="7.16918">
        <ele>405</ele>
        <time>2014-06-05T08:11:12Z</time>
      </trkpt>
      <trkpt lat="47.9351" lon="7.16931">
        <ele>404.7</ele>
        <time>2014-06-05T08:11:15Z</time>
      </trkpt>
      <trkpt lat="47.93517" lon="7.16944">
        <ele>404.4</ele>
        <time>2014-06-05T08:11:18Z</time>
      </trkpt>
      <trkpt lat="47.93525" lon="7.16957">
        <ele>404.9</ele>
        <time>2014-06-05T08:11:21Z</time>
      </trkpt>
      <trkpt lat="47.93531" lon="7.1697">
        <ele>404.7</ele>
        <time>2014-06-05T08:11:24Z</time>
      </trkpt>
      <trkpt lat="47.93535" lon="7.16984">
        <ele>405</ele>
        <time>2014-06-05T08:11:27Z</time>
      </trkpt>
      <trkpt lat="47.93536" lon="7.17001">
        <ele>405.1</ele>
        <time>2014-06-05T08:11:30Z</time>
      </trkpt>
      <trkpt lat="47.93539" lon="7.17017">
        <ele>405.3</ele>
        <time>2014-06-05T08:11:33Z</time>
      </trkpt>
      <trkpt lat="47.93541" lon="7.17035">
        <ele>405.2</ele>
        <time>2014-06-05T08:11:36Z</time>
      </trkpt>
      <trkpt lat="47.93547" lon="7.17048">
        <ele>405.4</ele>
        <time>2014-06-05T08:11:39Z</time>
      </trkpt>
      <trkpt lat="47.93552" lon="7.17078">
        <ele>405</ele>
        <time>2014-06-05T08:12:07Z</time>
      </trkpt>
      <trkpt lat="47.93553" lon="7.17094">
        <ele>404.6</ele>
        <time>2014-06-05T08:12:10Z</time>
      </trkpt>
      <trkpt lat="47.93552" lon="7.1711">
        <ele>405</ele>
        <time>2014-06-05T08:12:13Z</time>
      </trkpt>
      <trkpt lat="47.93552" lon="7.17126">
        <ele>405.1</ele>
        <time>2014-06-05T08:12:16Z</time>
      </trkpt>
      <trkpt lat="47.93551" lon="7.17145">
        <ele>405.2</ele>
        <time>2014-06-05T08:12:19Z</time>
      </trkpt>
      <trkpt lat="47.93549" lon="7.17163">
        <ele>405.4</ele>
        <time>2014-06-05T08:12:22Z</time>
      </trkpt>
      <trkpt lat="47.93545" lon="7.17179">
        <ele>405.3</ele>
        <time>2014-06-05T08:12:25Z</time>
      </trkpt>
      <trkpt lat="47.93541" lon="7.17194">
        <ele>406.1</ele>
        <time>2014-06-05T08:12:28Z</time>
      </trkpt>
      <trkpt lat="47.93536" lon="7.17208">
        <ele>406.9</ele>
        <time>2014-06-05T08:12:31Z</time>
      </trkpt>
      <trkpt lat="47.93531" lon="7.17222">
        <ele>407.8</ele>
        <time>2014-06-05T08:12:34Z</time>
      </trkpt>
      <trkpt lat="47.93525" lon="7.17234">
        <ele>408.4</ele>
        <time>2014-06-05T08:12:37Z</time>
      </trkpt>
      <trkpt lat="47.93522" lon="7.17247">
        <ele>409.1</ele>
        <time>2014-06-05T08:12:40Z</time>
      </trkpt>
      <trkpt lat="47.93511" lon="7.17273">
        <ele>410.8</ele>
        <time>2014-06-05T08:12:47Z</time>
      </trkpt>
      <trkpt lat="47.93506" lon="7.17285">
        <ele>411.4</ele>
        <time>2014-06-05T08:12:50Z</time>
      </trkpt>
      <trkpt lat="47.93499" lon="7.17299">
        <ele>412</ele>
        <time>2014-06-05T08:12:54Z</time>
      </trkpt>
      <trkpt lat="47.93494" lon="7.17311">
        <ele>412.3</ele>
        <time>2014-06-05T08:12:57Z</time>
      </trkpt>
      <trkpt lat="47.93489" lon="7.17325">
        <ele>412.7</ele>
        <time>2014-06-05T08:13:00Z</time>
      </trkpt>
      <trkpt lat="47.93487" lon="7.17338">
        <ele>413.3</ele>
        <time>2014-06-05T08:13:03Z</time>
      </trkpt>
      <trkpt lat="47.93481" lon="7.17351">
        <ele>414</ele>
        <time>2014-06-05T08:13:06Z</time>
      </trkpt>
      <trkpt lat="47.93478" lon="7.17366">
        <ele>414.5</ele>
        <time>2014-06-05T08:13:10Z</time>
      </trkpt>
      <trkpt lat="47.93473" lon="7.17381">
        <ele>415.4</ele>
        <time>2014-06-05T08:13:14Z</time>
      </trkpt>
      <trkpt lat="47.9347" lon="7.17396">
        <ele>416.4</ele>
        <time>2014-06-05T08:13:18Z</time>
      </trkpt>
      <trkpt lat="47.93466" lon="7.17409">
        <ele>417.2</ele>
        <time>2014-06-05T08:13:22Z</time>
      </trkpt>
      <trkpt lat="47.93459" lon="7.17422">
        <ele>418</ele>
        <time>2014-06-05T08:13:26Z</time>
      </trkpt>
      <trkpt lat="47.93454" lon="7.17433">
        <ele>418.6</ele>
        <time>2014-06-05T08:13:29Z</time>
      </trkpt>
      <trkpt lat="47.93447" lon="7.17444">
        <ele>419.6</ele>
        <time>2014-06-05T08:13:33Z</time>
      </trkpt>
      <trkpt lat="47.93441" lon="7.17455">
        <ele>420.5</ele>
        <time>2014-06-05T08:13:37Z</time>
      </trkpt>
      <trkpt lat="47.93434" lon="7.17465">
        <ele>421</ele>
        <time>2014-06-05T08:13:41Z</time>
      </trkpt>
      <trkpt lat="47.93419" lon="7.17489">
        <ele>422.8</ele>
        <time>2014-06-05T08:13:49Z</time>
      </trkpt>
      <trkpt lat="47.93411" lon="7.17501">
        <ele>423.6</ele>
        <time>2014-06-05T08:13:54Z</time>
      </trkpt>
      <trkpt lat="47.93402" lon="7.17509">
        <ele>424.6</ele>
        <time>2014-06-05T08:13:58Z</time>
      </trkpt>
      <trkpt lat="47.93393" lon="7.17517">
        <ele>424.9</ele>
        <time>2014-06-05T08:14:02Z</time>
      </trkpt>
      <trkpt lat="47.93385" lon="7.17527">
        <ele>425.1</ele>
        <time>2014-06-05T08:14:05Z</time>
      </trkpt>
      <trkpt lat="47.93381" lon="7.17545">
        <ele>424.9</ele>
        <time>2014-06-05T08:14:08Z</time>
      </trkpt>
      <trkpt lat="47.93378" lon="7.17564">
        <ele>424.7</ele>
        <time>2014-06-05T08:14:11Z</time>
      </trkpt>
      <trkpt lat="47.93376" lon="7.17579">
        <ele>424.4</ele>
        <time>2014-06-05T08:14:13Z</time>
      </trkpt>
      <trkpt lat="47.93372" lon="7.17596">
        <ele>424.1</ele>
        <time>2014-06-05T08:14:15Z</time>
      </trkpt>
      <trkpt lat="47.9337" lon="7.17612">
        <ele>423.9</ele>
        <time>2014-06-05T08:14:17Z</time>
      </trkpt>
      <trkpt lat="47.93367" lon="7.17627">
        <ele>423.9</ele>
        <time>2014-06-05T08:14:19Z</time>
      </trkpt>
      <trkpt lat="47.93363" lon="7.17642">
        <ele>423.8</ele>
        <time>2014-06-05T08:14:22Z</time>
      </trkpt>
      <trkpt lat="47.93358" lon="7.17656">
        <ele>423.5</ele>
        <time>2014-06-05T08:14:25Z</time>
      </trkpt>
      <trkpt lat="47.93353" lon="7.1767">
        <ele>423.4</ele>
        <time>2014-06-05T08:14:29Z</time>
      </trkpt>
      <trkpt lat="47.93348" lon="7.17683">
        <ele>422.9</ele>
        <time>2014-06-05T08:14:35Z</time>
      </trkpt>
      <trkpt lat="47.93341" lon="7.17694">
        <ele>422.5</ele>
        <time>2014-06-05T08:14:39Z</time>
      </trkpt>
      <trkpt lat="47.93333" lon="7.17701">
        <ele>422</ele>
        <time>2014-06-05T08:14:42Z</time>
      </trkpt>
      <trkpt lat="47.93311" lon="7.17718">
        <ele>420.3</ele>
        <time>2014-06-05T08:14:47Z</time>
      </trkpt>
      <trkpt lat="47.93304" lon="7.17728">
        <ele>419.7</ele>
        <time>2014-06-05T08:14:49Z</time>
      </trkpt>
      <trkpt lat="47.93298" lon="7.17739">
        <ele>418.7</ele>
        <time>2014-06-05T08:14:51Z</time>
      </trkpt>
      <trkpt lat="47.93289" lon="7.17752">
        <ele>417.6</ele>
        <time>2014-06-05T08:14:54Z</time>
      </trkpt>
      <trkpt lat="47.93281" lon="7.1776">
        <ele>416.8</ele>
        <time>2014-06-05T08:14:57Z</time>
      </trkpt>
      <trkpt lat="47.9327" lon="7.17763">
        <ele>415.6</ele>
        <time>2014-06-05T08:15:01Z</time>
      </trkpt>
      <trkpt lat="47.93258" lon="7.17769">
        <ele>414.8</ele>
        <time>2014-06-05T08:15:04Z</time>
      </trkpt>
      <trkpt lat="47.93249" lon="7.1778">
        <ele>413.8</ele>
        <time>2014-06-05T08:15:07Z</time>
      </trkpt>
      <trkpt lat="47.93245" lon="7.17794">
        <ele>412.4</ele>
        <time>2014-06-05T08:15:11Z</time>
      </trkpt>
      <trkpt lat="47.9324" lon="7.17807">
        <ele>411.6</ele>
        <time>2014-06-05T08:15:15Z</time>
      </trkpt>
      <trkpt lat="47.93232" lon="7.17819">
        <ele>411.2</ele>
        <time>2014-06-05T08:15:19Z</time>
      </trkpt>
      <trkpt lat="47.93225" lon="7.17831">
        <ele>407.6</ele>
        <time>2014-06-05T08:15:55Z</time>
      </trkpt>
      <trkpt lat="47.93213" lon="7.17857">
        <ele>405.9</ele>
        <time>2014-06-05T08:16:01Z</time>
      </trkpt>
      <trkpt lat="47.93206" lon="7.17866">
        <ele>404.5</ele>
        <time>2014-06-05T08:16:05Z</time>
      </trkpt>
      <trkpt lat="47.93197" lon="7.1787">
        <ele>403.5</ele>
        <time>2014-06-05T08:16:26Z</time>
      </trkpt>
      <trkpt lat="47.93188" lon="7.17868">
        <ele>405.5</ele>
        <time>2014-06-05T08:16:44Z</time>
      </trkpt>
      <trkpt lat="47.93178" lon="7.17873">
        <ele>405.7</ele>
        <time>2014-06-05T08:16:51Z</time>
      </trkpt>
      <trkpt lat="47.93169" lon="7.17875">
        <ele>404.6</ele>
        <time>2014-06-05T08:17:02Z</time>
      </trkpt>
      <trkpt lat="47.93154" lon="7.17891">
        <ele>399.1</ele>
        <time>2014-06-05T08:17:25Z</time>
      </trkpt>
      <trkpt lat="47.93147" lon="7.17901">
        <ele>394.9</ele>
        <time>2014-06-05T08:17:39Z</time>
      </trkpt>
      <trkpt lat="47.93138" lon="7.17909">
        <ele>394</ele>
        <time>2014-06-05T08:17:43Z</time>
      </trkpt>
      <trkpt lat="47.93131" lon="7.17919">
        <ele>393</ele>
        <time>2014-06-05T08:17:47Z</time>
      </trkpt>
      <trkpt lat="47.93123" lon="7.1793">
        <ele>392</ele>
        <time>2014-06-05T08:17:52Z</time>
      </trkpt>
      <trkpt lat="47.93116" lon="7.1794">
        <ele>390.9</ele>
        <time>2014-06-05T08:17:56Z</time>
      </trkpt>
      <trkpt lat="47.93109" lon="7.1795">
        <ele>388.8</ele>
        <time>2014-06-05T08:18:04Z</time>
      </trkpt>
      <trkpt lat="47.93093" lon="7.17968">
        <ele>387</ele>
        <time>2014-06-05T08:18:15Z</time>
      </trkpt>
      <trkpt lat="47.93088" lon="7.17982">
        <ele>385.1</ele>
        <time>2014-06-05T08:18:24Z</time>
      </trkpt>
      <trkpt lat="47.9308" lon="7.17991">
        <ele>383.3</ele>
        <time>2014-06-05T08:18:46Z</time>
      </trkpt>
      <trkpt lat="47.93079" lon="7.18004">
        <ele>383.5</ele>
        <time>2014-06-05T08:19:07Z</time>
      </trkpt>
      <trkpt lat="47.93074" lon="7.17994">
        <ele>381.8</ele>
        <time>2014-06-05T08:19:44Z</time>
      </trkpt>
      <trkpt lat="47.93064" lon="7.18003">
        <ele>380.5</ele>
        <time>2014-06-05T08:19:48Z</time>
      </trkpt>
      <trkpt lat="47.93056" lon="7.18013">
        <ele>379.5</ele>
        <time>2014-06-05T08:19:52Z</time>
      </trkpt>
      <trkpt lat="47.93048" lon="7.1802">
        <ele>377.4</ele>
        <time>2014-06-05T08:19:56Z</time>
      </trkpt>
      <trkpt lat="47.93039" lon="7.18027">
        <ele>376.7</ele>
        <time>2014-06-05T08:19:59Z</time>
      </trkpt>
      <trkpt lat="47.93029" lon="7.18036">
        <ele>375</ele>
        <time>2014-06-05T08:20:03Z</time>
      </trkpt>
      <trkpt lat="47.93018" lon="7.18044">
        <ele>374.6</ele>
        <time>2014-06-05T08:20:07Z</time>
      </trkpt>
      <trkpt lat="47.9301" lon="7.18051">
        <ele>373.5</ele>
        <time>2014-06-05T08:20:10Z</time>
      </trkpt>
      <trkpt lat="47.92999" lon="7.18073">
        <ele>371.7</ele>
        <time>2014-06-05T08:20:19Z</time>
      </trkpt>
      <trkpt lat="47.93004" lon="7.18088">
        <ele>371</ele>
        <time>2014-06-05T08:20:25Z</time>
      </trkpt>
      <trkpt lat="47.93008" lon="7.18101">
        <ele>370</ele>
        <time>2014-06-05T08:20:28Z</time>
      </trkpt>
      <trkpt lat="47.93013" lon="7.18113">
        <ele>368.9</ele>
        <time>2014-06-05T08:20:31Z</time>
      </trkpt>
      <trkpt lat="47.93016" lon="7.18125">
        <ele>367.3</ele>
        <time>2014-06-05T08:20:34Z</time>
      </trkpt>
      <trkpt lat="47.93014" lon="7.18142">
        <ele>366.5</ele>
        <time>2014-06-05T08:20:37Z</time>
      </trkpt>
      <trkpt lat="47.93008" lon="7.1816">
        <ele>365.5</ele>
        <time>2014-06-05T08:20:40Z</time>
      </trkpt>
      <trkpt lat="47.93003" lon="7.18173">
        <ele>364.9</ele>
        <time>2014-06-05T08:20:42Z</time>
      </trkpt>
      <trkpt lat="47.92998" lon="7.18185">
        <ele>364</ele>
        <time>2014-06-05T08:20:44Z</time>
      </trkpt>
      <trkpt lat="47.92992" lon="7.18203">
        <ele>362.2</ele>
        <time>2014-06-05T08:20:47Z</time>
      </trkpt>
      <trkpt lat="47.92986" lon="7.18219">
        <ele>361.5</ele>
        <time>2014-06-05T08:20:50Z</time>
      </trkpt>
      <trkpt lat="47.92982" lon="7.18232">
        <ele>360.8</ele>
        <time>2014-06-05T08:20:53Z</time>
      </trkpt>
      <trkpt lat="47.92978" lon="7.18246">
        <ele>359.9</ele>
        <time>2014-06-05T08:20:56Z</time>
      </trkpt>
      <trkpt lat="47.9297" lon="7.18238">
        <ele>355.7</ele>
        <time>2014-06-05T08:22:07Z</time>
      </trkpt>
      <trkpt lat="47.92951" lon="7.18219">
        <ele>356.1</ele>
        <time>2014-06-05T08:22:15Z</time>
      </trkpt>
      <trkpt lat="47.92942" lon="7.1821">
        <ele>356.4</ele>
        <time>2014-06-05T08:22:18Z</time>
      </trkpt>
      <trkpt lat="47.92934" lon="7.18199">
        <ele>357</ele>
        <time>2014-06-05T08:22:22Z</time>
      </trkpt>
      <trkpt lat="47.92928" lon="7.18188">
        <ele>357.7</ele>
        <time>2014-06-05T08:22:25Z</time>
      </trkpt>
      <trkpt lat="47.92918" lon="7.18184">
        <ele>358.4</ele>
        <time>2014-06-05T08:22:28Z</time>
      </trkpt>
      <trkpt lat="47.92907" lon="7.18187">
        <ele>358.7</ele>
        <time>2014-06-05T08:22:31Z</time>
      </trkpt>
      <trkpt lat="47.92898" lon="7.18192">
        <ele>359.1</ele>
        <time>2014-06-05T08:22:33Z</time>
      </trkpt>
      <trkpt lat="47.9289" lon="7.18198">
        <ele>359.3</ele>
        <time>2014-06-05T08:22:35Z</time>
      </trkpt>
      <trkpt lat="47.92882" lon="7.18209">
        <ele>359.7</ele>
        <time>2014-06-05T08:22:38Z</time>
      </trkpt>
      <trkpt lat="47.92871" lon="7.18215">
        <ele>359.9</ele>
        <time>2014-06-05T08:22:41Z</time>
      </trkpt>
      <trkpt lat="47.92859" lon="7.1822">
        <ele>360.1</ele>
        <time>2014-06-05T08:22:44Z</time>
      </trkpt>
      <trkpt lat="47.92849" lon="7.18226">
        <ele>360.2</ele>
        <time>2014-06-05T08:22:47Z</time>
      </trkpt>
      <trkpt lat="47.92838" lon="7.18231">
        <ele>360.7</ele>
        <time>2014-06-05T08:22:50Z</time>
      </trkpt>
      <trkpt lat="47.92826" lon="7.18234">
        <ele>361.2</ele>
        <time>2014-06-05T08:22:53Z</time>
      </trkpt>
      <trkpt lat="47.92816" lon="7.18232">
        <ele>361.9</ele>
        <time>2014-06-05T08:22:56Z</time>
      </trkpt>
      <trkpt lat="47.92806" lon="7.18232">
        <ele>362.8</ele>
        <time>2014-06-05T08:23:00Z</time>
      </trkpt>
      <trkpt lat="47.92797" lon="7.18224">
        <ele>364</ele>
        <time>2014-06-05T08:23:04Z</time>
      </trkpt>
      <trkpt lat="47.9279" lon="7.18214">
        <ele>365.1</ele>
        <time>2014-06-05T08:23:08Z</time>
      </trkpt>
      <trkpt lat="47.92781" lon="7.18187">
        <ele>366.8</ele>
        <time>2014-06-05T08:23:16Z</time>
      </trkpt>
      <trkpt lat="47.92779" lon="7.18173">
        <ele>368.2</ele>
        <time>2014-06-05T08:23:21Z</time>
      </trkpt>
      <trkpt lat="47.92772" lon="7.18162">
        <ele>369</ele>
        <time>2014-06-05T08:23:26Z</time>
      </trkpt>
      <trkpt lat="47.92781" lon="7.18156">
        <ele>368.2</ele>
        <time>2014-06-05T08:24:05Z</time>
      </trkpt>
      <trkpt lat="47.92792" lon="7.18152">
        <ele>368.5</ele>
        <time>2014-06-05T08:24:09Z</time>
      </trkpt>
      <trkpt lat="47.92811" lon="7.18142">
        <ele>370.2</ele>
        <time>2014-06-05T08:24:15Z</time>
      </trkpt>
      <trkpt lat="47.92822" lon="7.18133">
        <ele>371.3</ele>
        <time>2014-06-05T08:24:19Z</time>
      </trkpt>
      <trkpt lat="47.9283" lon="7.18126">
        <ele>372</ele>
        <time>2014-06-05T08:24:22Z</time>
      </trkpt>
      <trkpt lat="47.92838" lon="7.18115">
        <ele>373.6</ele>
        <time>2014-06-05T08:24:26Z</time>
      </trkpt>
      <trkpt lat="47.92846" lon="7.18105">
        <ele>374.6</ele>
        <time>2014-06-05T08:24:30Z</time>
      </trkpt>
      <trkpt lat="47.92852" lon="7.18091">
        <ele>375.9</ele>
        <time>2014-06-05T08:24:34Z</time>
      </trkpt>
      <trkpt lat="47.92858" lon="7.18075">
        <ele>377.3</ele>
        <time>2014-06-05T08:24:38Z</time>
      </trkpt>
      <trkpt lat="47.92863" lon="7.18061">
        <ele>378.2</ele>
        <time>2014-06-05T08:24:42Z</time>
      </trkpt>
      <trkpt lat="47.92866" lon="7.18046">
        <ele>379.2</ele>
        <time>2014-06-05T08:24:46Z</time>
      </trkpt>
      <trkpt lat="47.92875" lon="7.18038">
        <ele>380.3</ele>
        <time>2014-06-05T08:24:49Z</time>
      </trkpt>
      <trkpt lat="47.92882" lon="7.18028">
        <ele>381.8</ele>
        <time>2014-06-05T08:24:53Z</time>
      </trkpt>
      <trkpt lat="47.92888" lon="7.18015">
        <ele>383</ele>
        <time>2014-06-05T08:24:57Z</time>
      </trkpt>
      <trkpt lat="47.92893" lon="7.18003">
        <ele>384</ele>
        <time>2014-06-05T08:25:01Z</time>
      </trkpt>
      <trkpt lat="47.92902" lon="7.17995">
        <ele>385.3</ele>
        <time>2014-06-05T08:25:06Z</time>
      </trkpt>
      <trkpt lat="47.9291" lon="7.17985">
        <ele>387</ele>
        <time>2014-06-05T08:25:11Z</time>
      </trkpt>
      <trkpt lat="47.92926" lon="7.17967">
        <ele>390.1</ele>
        <time>2014-06-05T08:25:21Z</time>
      </trkpt>
      <trkpt lat="47.92934" lon="7.17955">
        <ele>391.4</ele>
        <time>2014-06-05T08:25:27Z</time>
      </trkpt>
      <trkpt lat="47.92938" lon="7.17942">
        <ele>392.5</ele>
        <time>2014-06-05T08:25:32Z</time>
      </trkpt>
      <trkpt lat="47.9294" lon="7.17929">
        <ele>393.4</ele>
        <time>2014-06-05T08:25:37Z</time>
      </trkpt>
      <trkpt lat="47.9293" lon="7.17921">
        <ele>396</ele>
        <time>2014-06-05T08:25:44Z</time>
      </trkpt>
      <trkpt lat="47.92922" lon="7.17915">
        <ele>397.8</ele>
        <time>2014-06-05T08:25:49Z</time>
      </trkpt>
      <trkpt lat="47.92913" lon="7.17905">
        <ele>399</ele>
        <time>2014-06-05T08:25:55Z</time>
      </trkpt>
      <trkpt lat="47.92905" lon="7.17902">
        <ele>399.9</ele>
        <time>2014-06-05T08:26:00Z</time>
      </trkpt>
      <trkpt lat="47.92897" lon="7.17891">
        <ele>400.6</ele>
        <time>2014-06-05T08:26:04Z</time>
      </trkpt>
      <trkpt lat="47.92889" lon="7.17885">
        <ele>401.2</ele>
        <time>2014-06-05T08:26:09Z</time>
      </trkpt>
      <trkpt lat="47.92881" lon="7.17875">
        <ele>401.8</ele>
        <time>2014-06-05T08:26:14Z</time>
      </trkpt>
      <trkpt lat="47.92864" lon="7.17858">
        <ele>403.7</ele>
        <time>2014-06-05T08:26:24Z</time>
      </trkpt>
      <trkpt lat="47.92856" lon="7.17849">
        <ele>403.8</ele>
        <time>2014-06-05T08:26:28Z</time>
      </trkpt>
      <trkpt lat="47.92847" lon="7.17838">
        <ele>404.2</ele>
        <time>2014-06-05T08:26:32Z</time>
      </trkpt>
      <trkpt lat="47.9284" lon="7.17828">
        <ele>404.4</ele>
        <time>2014-06-05T08:26:36Z</time>
      </trkpt>
      <trkpt lat="47.92833" lon="7.17817">
        <ele>405.2</ele>
        <time>2014-06-05T08:26:41Z</time>
      </trkpt>
      <trkpt lat="47.92827" lon="7.17806">
        <ele>406.3</ele>
        <time>2014-06-05T08:26:46Z</time>
      </trkpt>
      <trkpt lat="47.92821" lon="7.1779">
        <ele>407.3</ele>
        <time>2014-06-05T08:26:51Z</time>
      </trkpt>
      <trkpt lat="47.92813" lon="7.17777">
        <ele>408.1</ele>
        <time>2014-06-05T08:26:55Z</time>
      </trkpt>
      <trkpt lat="47.92808" lon="7.17764">
        <ele>409.3</ele>
        <time>2014-06-05T08:27:00Z</time>
      </trkpt>
      <trkpt lat="47.92802" lon="7.17752">
        <ele>410.7</ele>
        <time>2014-06-05T08:27:05Z</time>
      </trkpt>
      <trkpt lat="47.92796" lon="7.17739">
        <ele>411.7</ele>
        <time>2014-06-05T08:27:11Z</time>
      </trkpt>
      <trkpt lat="47.92791" lon="7.17728">
        <ele>412.2</ele>
        <time>2014-06-05T08:27:16Z</time>
      </trkpt>
      <trkpt lat="47.92781" lon="7.17705">
        <ele>413.6</ele>
        <time>2014-06-05T08:27:24Z</time>
      </trkpt>
      <trkpt lat="47.92775" lon="7.17691">
        <ele>414.6</ele>
        <time>2014-06-05T08:27:29Z</time>
      </trkpt>
      <trkpt lat="47.92768" lon="7.17677">
        <ele>415.2</ele>
        <time>2014-06-05T08:27:34Z</time>
      </trkpt>
      <trkpt lat="47.92763" lon="7.17666">
        <ele>415.8</ele>
        <time>2014-06-05T08:27:38Z</time>
      </trkpt>
      <trkpt lat="47.92758" lon="7.17653">
        <ele>416.8</ele>
        <time>2014-06-05T08:27:42Z</time>
      </trkpt>
      <trkpt lat="47.92753" lon="7.1764">
        <ele>417.3</ele>
        <time>2014-06-05T08:27:46Z</time>
      </trkpt>
      <trkpt lat="47.92747" lon="7.17628">
        <ele>417.6</ele>
        <time>2014-06-05T08:27:50Z</time>
      </trkpt>
      <trkpt lat="47.9274" lon="7.17617">
        <ele>418.1</ele>
        <time>2014-06-05T08:27:54Z</time>
      </trkpt>
      <trkpt lat="47.92732" lon="7.17607">
        <ele>418.6</ele>
        <time>2014-06-05T08:27:59Z</time>
      </trkpt>
      <trkpt lat="47.92723" lon="7.17599">
        <ele>419.2</ele>
        <time>2014-06-05T08:28:04Z</time>
      </trkpt>
      <trkpt lat="47.92718" lon="7.17587">
        <ele>420.6</ele>
        <time>2014-06-05T08:28:10Z</time>
      </trkpt>
      <trkpt lat="47.92712" lon="7.17577">
        <ele>422.3</ele>
        <time>2014-06-05T08:28:16Z</time>
      </trkpt>
      <trkpt lat="47.92705" lon="7.17567">
        <ele>432.3</ele>
        <time>2014-06-05T08:29:21Z</time>
      </trkpt>
      <trkpt lat="47.92684" lon="7.17508">
        <ele>434.3</ele>
        <time>2014-06-05T08:29:31Z</time>
      </trkpt>
      <trkpt lat="47.92675" lon="7.175">
        <ele>434.8</ele>
        <time>2014-06-05T08:29:50Z</time>
      </trkpt>
      <trkpt lat="47.92675" lon="7.17486">
        <ele>434.7</ele>
        <time>2014-06-05T08:30:04Z</time>
      </trkpt>
      <trkpt lat="47.92667" lon="7.17478">
        <ele>434.3</ele>
        <time>2014-06-05T08:31:59Z</time>
      </trkpt>
      <trkpt lat="47.92658" lon="7.17453">
        <ele>436.2</ele>
        <time>2014-06-05T08:32:10Z</time>
      </trkpt>
      <trkpt lat="47.9265" lon="7.17444">
        <ele>437.1</ele>
        <time>2014-06-05T08:32:16Z</time>
      </trkpt>
      <trkpt lat="47.92641" lon="7.17436">
        <ele>438.3</ele>
        <time>2014-06-05T08:32:21Z</time>
      </trkpt>
      <trkpt lat="47.92632" lon="7.17428">
        <ele>438.9</ele>
        <time>2014-06-05T08:32:25Z</time>
      </trkpt>
      <trkpt lat="47.92621" lon="7.17425">
        <ele>439.9</ele>
        <time>2014-06-05T08:32:29Z</time>
      </trkpt>
      <trkpt lat="47.92612" lon="7.17422">
        <ele>442.1</ele>
        <time>2014-06-05T08:32:36Z</time>
      </trkpt>
      <trkpt lat="47.92603" lon="7.17425">
        <ele>445.2</ele>
        <time>2014-06-05T08:33:25Z</time>
      </trkpt>
      <trkpt lat="47.92585" lon="7.17414">
        <ele>449.7</ele>
        <time>2014-06-05T08:33:49Z</time>
      </trkpt>
      <trkpt lat="47.92579" lon="7.17403">
        <ele>452.4</ele>
        <time>2014-06-05T08:34:14Z</time>
      </trkpt>
      <trkpt lat="47.92571" lon="7.17393">
        <ele>454</ele>
        <time>2014-06-05T08:34:20Z</time>
      </trkpt>
      <trkpt lat="47.92567" lon="7.1738">
        <ele>455.5</ele>
        <time>2014-06-05T08:34:26Z</time>
      </trkpt>
      <trkpt lat="47.9255" lon="7.17363">
        <ele>459</ele>
        <time>2014-06-05T08:34:51Z</time>
      </trkpt>
      <trkpt lat="47.92541" lon="7.17364">
        <ele>457.9</ele>
        <time>2014-06-05T08:35:18Z</time>
      </trkpt>
      <trkpt lat="47.92532" lon="7.17355">
        <ele>457.3</ele>
        <time>2014-06-05T08:35:23Z</time>
      </trkpt>
      <trkpt lat="47.92524" lon="7.17351">
        <ele>456.4</ele>
        <time>2014-06-05T08:35:27Z</time>
      </trkpt>
      <trkpt lat="47.92501" lon="7.17343">
        <ele>454.9</ele>
        <time>2014-06-05T08:35:34Z</time>
      </trkpt>
      <trkpt lat="47.92492" lon="7.17335">
        <ele>454.3</ele>
        <time>2014-06-05T08:35:38Z</time>
      </trkpt>
      <trkpt lat="47.92482" lon="7.17326">
        <ele>453.7</ele>
        <time>2014-06-05T08:35:42Z</time>
      </trkpt>
      <trkpt lat="47.92472" lon="7.17322">
        <ele>452.9</ele>
        <time>2014-06-05T08:35:45Z</time>
      </trkpt>
      <trkpt lat="47.92463" lon="7.17314">
        <ele>452.5</ele>
        <time>2014-06-05T08:35:47Z</time>
      </trkpt>
      <trkpt lat="47.92455" lon="7.17306">
        <ele>451.7</ele>
        <time>2014-06-05T08:35:49Z</time>
      </trkpt>
      <trkpt lat="47.92444" lon="7.17298">
        <ele>451.3</ele>
        <time>2014-06-05T08:35:52Z</time>
      </trkpt>
      <trkpt lat="47.92436" lon="7.17291">
        <ele>450.7</ele>
        <time>2014-06-05T08:35:54Z</time>
      </trkpt>
      <trkpt lat="47.92428" lon="7.17283">
        <ele>450.3</ele>
        <time>2014-06-05T08:35:56Z</time>
      </trkpt>
      <trkpt lat="47.92421" lon="7.17275">
        <ele>449.8</ele>
        <time>2014-06-05T08:35:58Z</time>
      </trkpt>
      <trkpt lat="47.92413" lon="7.17267">
        <ele>448.9</ele>
        <time>2014-06-05T08:36:00Z</time>
      </trkpt>
      <trkpt lat="47.92403" lon="7.17257">
        <ele>447.9</ele>
        <time>2014-06-05T08:36:03Z</time>
      </trkpt>
      <trkpt lat="47.92393" lon="7.17246">
        <ele>446.9</ele>
        <time>2014-06-05T08:36:06Z</time>
      </trkpt>
      <trkpt lat="47.92383" lon="7.17234">
        <ele>445.9</ele>
        <time>2014-06-05T08:36:09Z</time>
      </trkpt>
      <trkpt lat="47.92371" lon="7.17225">
        <ele>444.6</ele>
        <time>2014-06-05T08:36:12Z</time>
      </trkpt>
      <trkpt lat="47.92362" lon="7.17216">
        <ele>444.2</ele>
        <time>2014-06-05T08:36:14Z</time>
      </trkpt>
      <trkpt lat="47.92354" lon="7.17206">
        <ele>443.4</ele>
        <time>2014-06-05T08:36:16Z</time>
      </trkpt>
      <trkpt lat="47.92349" lon="7.17194">
        <ele>443.1</ele>
        <time>2014-06-05T08:36:17Z</time>
      </trkpt>
      <trkpt lat="47.92338" lon="7.17182">
        <ele>442</ele>
        <time>2014-06-05T08:36:19Z</time>
      </trkpt>
      <trkpt lat="47.92329" lon="7.17175">
        <ele>441.3</ele>
        <time>2014-06-05T08:36:21Z</time>
      </trkpt>
      <trkpt lat="47.92317" lon="7.17174">
        <ele>440.5</ele>
        <time>2014-06-05T08:36:24Z</time>
      </trkpt>
      <trkpt lat="47.92303" lon="7.17172">
        <ele>439.6</ele>
        <time>2014-06-05T08:36:27Z</time>
      </trkpt>
      <trkpt lat="47.92294" lon="7.17166">
        <ele>438.8</ele>
        <time>2014-06-05T08:36:29Z</time>
      </trkpt>
      <trkpt lat="47.92275" lon="7.17155">
        <ele>437.3</ele>
        <time>2014-06-05T08:36:33Z</time>
      </trkpt>
      <trkpt lat="47.92267" lon="7.17143">
        <ele>436.5</ele>
        <time>2014-06-05T08:36:35Z</time>
      </trkpt>
      <trkpt lat="47.92259" lon="7.17129">
        <ele>436</ele>
        <time>2014-06-05T08:36:37Z</time>
      </trkpt>
      <trkpt lat="47.9225" lon="7.17117">
        <ele>434.8</ele>
        <time>2014-06-05T08:36:39Z</time>
      </trkpt>
      <trkpt lat="47.92241" lon="7.17106">
        <ele>434</ele>
        <time>2014-06-05T08:36:41Z</time>
      </trkpt>
      <trkpt lat="47.92233" lon="7.17096">
        <ele>433.2</ele>
        <time>2014-06-05T08:36:43Z</time>
      </trkpt>
      <trkpt lat="47.92226" lon="7.17086">
        <ele>432.2</ele>
        <time>2014-06-05T08:36:45Z</time>
      </trkpt>
      <trkpt lat="47.92218" lon="7.17073">
        <ele>431.2</ele>
        <time>2014-06-05T08:36:47Z</time>
      </trkpt>
      <trkpt lat="47.92209" lon="7.17058">
        <ele>430.4</ele>
        <time>2014-06-05T08:36:49Z</time>
      </trkpt>
      <trkpt lat="47.92199" lon="7.17041">
        <ele>429.4</ele>
        <time>2014-06-05T08:36:51Z</time>
      </trkpt>
      <trkpt lat="47.92189" lon="7.17025">
        <ele>428.3</ele>
        <time>2014-06-05T08:36:53Z</time>
      </trkpt>
      <trkpt lat="47.92181" lon="7.17008">
        <ele>427.6</ele>
        <time>2014-06-05T08:36:55Z</time>
      </trkpt>
      <trkpt lat="47.92173" lon="7.16987">
        <ele>426.7</ele>
        <time>2014-06-05T08:36:57Z</time>
      </trkpt>
      <trkpt lat="47.92166" lon="7.16968">
        <ele>426.1</ele>
        <time>2014-06-05T08:36:59Z</time>
      </trkpt>
      <trkpt lat="47.92159" lon="7.1695">
        <ele>425.3</ele>
        <time>2014-06-05T08:37:01Z</time>
      </trkpt>
      <trkpt lat="47.92154" lon="7.16932">
        <ele>424</ele>
        <time>2014-06-05T08:37:03Z</time>
      </trkpt>
      <trkpt lat="47.92155" lon="7.16913">
        <ele>423.3</ele>
        <time>2014-06-05T08:37:05Z</time>
      </trkpt>
      <trkpt lat="47.92157" lon="7.16894">
        <ele>422.4</ele>
        <time>2014-06-05T08:37:07Z</time>
      </trkpt>
      <trkpt lat="47.9216" lon="7.16879">
        <ele>420.9</ele>
        <time>2014-06-05T08:37:09Z</time>
      </trkpt>
      <trkpt lat="47.92166" lon="7.16867">
        <ele>419.5</ele>
        <time>2014-06-05T08:37:11Z</time>
      </trkpt>
      <trkpt lat="47.92174" lon="7.16856">
        <ele>418.5</ele>
        <time>2014-06-05T08:37:13Z</time>
      </trkpt>
      <trkpt lat="47.92183" lon="7.16843">
        <ele>417.3</ele>
        <time>2014-06-05T08:37:15Z</time>
      </trkpt>
      <trkpt lat="47.92192" lon="7.1683">
        <ele>416.5</ele>
        <time>2014-06-05T08:37:17Z</time>
      </trkpt>
      <trkpt lat="47.92203" lon="7.16814">
        <ele>415.7</ele>
        <time>2014-06-05T08:37:19Z</time>
      </trkpt>
      <trkpt lat="47.92213" lon="7.16798">
        <ele>414.9</ele>
        <time>2014-06-05T08:37:21Z</time>
      </trkpt>
      <trkpt lat="47.92224" lon="7.16782">
        <ele>414.2</ele>
        <time>2014-06-05T08:37:23Z</time>
      </trkpt>
      <trkpt lat="47.92235" lon="7.16765">
        <ele>413.1</ele>
        <time>2014-06-05T08:37:25Z</time>
      </trkpt>
      <trkpt lat="47.92245" lon="7.16746">
        <ele>411.9</ele>
        <time>2014-06-05T08:37:27Z</time>
      </trkpt>
      <trkpt lat="47.92253" lon="7.16732">
        <ele>410.7</ele>
        <time>2014-06-05T08:37:29Z</time>
      </trkpt>
      <trkpt lat="47.92255" lon="7.16716">
        <ele>409.6</ele>
        <time>2014-06-05T08:37:32Z</time>
      </trkpt>
      <trkpt lat="47.92244" lon="7.1669">
        <ele>406</ele>
        <time>2014-06-05T08:37:45Z</time>
      </trkpt>
      <trkpt lat="47.92248" lon="7.16678">
        <ele>403</ele>
        <time>2014-06-05T08:38:03Z</time>
      </trkpt>
      <trkpt lat="47.92241" lon="7.1669">
        <ele>402.6</ele>
        <time>2014-06-05T08:38:18Z</time>
      </trkpt>
      <trkpt lat="47.92235" lon="7.16701">
        <ele>402.2</ele>
        <time>2014-06-05T08:38:22Z</time>
      </trkpt>
      <trkpt lat="47.92227" lon="7.16713">
        <ele>401.7</ele>
        <time>2014-06-05T08:38:26Z</time>
      </trkpt>
      <trkpt lat="47.92218" lon="7.16727">
        <ele>401.4</ele>
        <time>2014-06-05T08:38:29Z</time>
      </trkpt>
      <trkpt lat="47.92206" lon="7.16737">
        <ele>401.1</ele>
        <time>2014-06-05T08:38:32Z</time>
      </trkpt>
      <trkpt lat="47.92199" lon="7.16747">
        <ele>400.8</ele>
        <time>2014-06-05T08:38:34Z</time>
      </trkpt>
      <trkpt lat="47.9218" lon="7.16764">
        <ele>400.1</ele>
        <time>2014-06-05T08:38:38Z</time>
      </trkpt>
      <trkpt lat="47.92171" lon="7.16774">
        <ele>399.7</ele>
        <time>2014-06-05T08:38:40Z</time>
      </trkpt>
      <trkpt lat="47.92162" lon="7.16781">
        <ele>399.4</ele>
        <time>2014-06-05T08:38:42Z</time>
      </trkpt>
      <trkpt lat="47.92152" lon="7.1679">
        <ele>398.7</ele>
        <time>2014-06-05T08:38:45Z</time>
      </trkpt>
      <trkpt lat="47.92144" lon="7.16798">
        <ele>397.9</ele>
        <time>2014-06-05T08:38:49Z</time>
      </trkpt>
      <trkpt lat="47.92154" lon="7.16796">
        <ele>396.6</ele>
        <time>2014-06-05T08:38:58Z</time>
      </trkpt>
      <trkpt lat="47.92164" lon="7.16789">
        <ele>396.6</ele>
        <time>2014-06-05T08:39:02Z</time>
      </trkpt>
      <trkpt lat="47.92175" lon="7.16781">
        <ele>396.7</ele>
        <time>2014-06-05T08:39:05Z</time>
      </trkpt>
      <trkpt lat="47.92185" lon="7.16774">
        <ele>397.4</ele>
        <time>2014-06-05T08:39:08Z</time>
      </trkpt>
      <trkpt lat="47.92195" lon="7.16767">
        <ele>398</ele>
        <time>2014-06-05T08:39:11Z</time>
      </trkpt>
      <trkpt lat="47.92205" lon="7.16758">
        <ele>398.5</ele>
        <time>2014-06-05T08:39:14Z</time>
      </trkpt>
      <trkpt lat="47.92215" lon="7.16748">
        <ele>399</ele>
        <time>2014-06-05T08:39:17Z</time>
      </trkpt>
      <trkpt lat="47.92225" lon="7.16737">
        <ele>399.4</ele>
        <time>2014-06-05T08:39:20Z</time>
      </trkpt>
      <trkpt lat="47.92232" lon="7.16722">
        <ele>400.1</ele>
        <time>2014-06-05T08:39:23Z</time>
      </trkpt>
      <trkpt lat="47.9224" lon="7.16707">
        <ele>400.6</ele>
        <time>2014-06-05T08:39:26Z</time>
      </trkpt>
      <trkpt lat="47.92246" lon="7.16692">
        <ele>401.3</ele>
        <time>2014-06-05T08:39:29Z</time>
      </trkpt>
      <trkpt lat="47.92253" lon="7.16677">
        <ele>402</ele>
        <time>2014-06-05T08:39:32Z</time>
      </trkpt>
      <trkpt lat="47.9226" lon="7.16666">
        <ele>402.6</ele>
        <time>2014-06-05T08:39:35Z</time>
      </trkpt>
      <trkpt lat="47.92274" lon="7.16637">
        <ele>403.7</ele>
        <time>2014-06-05T08:39:41Z</time>
      </trkpt>
      <trkpt lat="47.92282" lon="7.16624">
        <ele>404.4</ele>
        <time>2014-06-05T08:39:44Z</time>
      </trkpt>
      <trkpt lat="47.92289" lon="7.1661">
        <ele>405</ele>
        <time>2014-06-05T08:39:47Z</time>
      </trkpt>
      <trkpt lat="47.92295" lon="7.16597">
        <ele>405.5</ele>
        <time>2014-06-05T08:39:50Z</time>
      </trkpt>
      <trkpt lat="47.92301" lon="7.1658">
        <ele>406.1</ele>
        <time>2014-06-05T08:39:53Z</time>
      </trkpt>
      <trkpt lat="47.92308" lon="7.16566">
        <ele>406.8</ele>
        <time>2014-06-05T08:39:56Z</time>
      </trkpt>
      <trkpt lat="47.92315" lon="7.16555">
        <ele>407.5</ele>
        <time>2014-06-05T08:39:59Z</time>
      </trkpt>
      <trkpt lat="47.9232" lon="7.1654">
        <ele>408.5</ele>
        <time>2014-06-05T08:40:03Z</time>
      </trkpt>
      <trkpt lat="47.92322" lon="7.16524">
        <ele>410.1</ele>
        <time>2014-06-05T08:40:19Z</time>
      </trkpt>
      <trkpt lat="47.92324" lon="7.16507">
        <ele>410</ele>
        <time>2014-06-05T08:40:22Z</time>
      </trkpt>
      <trkpt lat="47.92327" lon="7.16489">
        <ele>409.9</ele>
        <time>2014-06-05T08:40:25Z</time>
      </trkpt>
      <trkpt lat="47.92327" lon="7.16469">
        <ele>409.9</ele>
        <time>2014-06-05T08:40:28Z</time>
      </trkpt>
      <trkpt lat="47.92327" lon="7.1645">
        <ele>410.3</ele>
        <time>2014-06-05T08:40:31Z</time>
      </trkpt>
      <trkpt lat="47.92327" lon="7.16433">
        <ele>410.4</ele>
        <time>2014-06-05T08:40:34Z</time>
      </trkpt>
      <trkpt lat="47.92327" lon="7.16415">
        <ele>410.9</ele>
        <time>2014-06-05T08:40:37Z</time>
      </trkpt>
      <trkpt lat="47.92329" lon="7.1638">
        <ele>411.7</ele>
        <time>2014-06-05T08:40:43Z</time>
      </trkpt>
      <trkpt lat="47.9233" lon="7.16363">
        <ele>412.1</ele>
        <time>2014-06-05T08:40:46Z</time>
      </trkpt>
      <trkpt lat="47.92333" lon="7.16346">
        <ele>412.7</ele>
        <time>2014-06-05T08:40:49Z</time>
      </trkpt>
      <trkpt lat="47.92335" lon="7.16328">
        <ele>413.4</ele>
        <time>2014-06-05T08:40:52Z</time>
      </trkpt>
      <trkpt lat="47.92334" lon="7.16311">
        <ele>414</ele>
        <time>2014-06-05T08:40:55Z</time>
      </trkpt>
      <trkpt lat="47.92336" lon="7.16297">
        <ele>414.5</ele>
        <time>2014-06-05T08:40:58Z</time>
      </trkpt>
      <trkpt lat="47.92335" lon="7.16279">
        <ele>415.5</ele>
        <time>2014-06-05T08:41:02Z</time>
      </trkpt>
      <trkpt lat="47.92335" lon="7.16265">
        <ele>416.3</ele>
        <time>2014-06-05T08:41:06Z</time>
      </trkpt>
      <trkpt lat="47.92334" lon="7.16248">
        <ele>417.1</ele>
        <time>2014-06-05T08:41:10Z</time>
      </trkpt>
      <trkpt lat="47.92334" lon="7.16234">
        <ele>417.6</ele>
        <time>2014-06-05T08:41:13Z</time>
      </trkpt>
      <trkpt lat="47.92333" lon="7.16218">
        <ele>418.4</ele>
        <time>2014-06-05T08:41:17Z</time>
      </trkpt>
      <trkpt lat="47.92333" lon="7.16204">
        <ele>418.3</ele>
        <time>2014-06-05T08:41:21Z</time>
      </trkpt>
      <trkpt lat="47.92336" lon="7.16188">
        <ele>418.5</ele>
        <time>2014-06-05T08:41:25Z</time>
      </trkpt>
      <trkpt lat="47.92337" lon="7.16173">
        <ele>419</ele>
        <time>2014-06-05T08:41:29Z</time>
      </trkpt>
      <trkpt lat="47.92336" lon="7.16157">
        <ele>419.6</ele>
        <time>2014-06-05T08:41:33Z</time>
      </trkpt>
      <trkpt lat="47.92334" lon="7.16139">
        <ele>420.1</ele>
        <time>2014-06-05T08:41:37Z</time>
      </trkpt>
      <trkpt lat="47.92334" lon="7.16126">
        <ele>420.7</ele>
        <time>2014-06-05T08:41:40Z</time>
      </trkpt>
      <trkpt lat="47.92328" lon="7.16092">
        <ele>422.7</ele>
        <time>2014-06-05T08:41:48Z</time>
      </trkpt>
      <trkpt lat="47.92324" lon="7.16077">
        <ele>423.7</ele>
        <time>2014-06-05T08:41:52Z</time>
      </trkpt>
      <trkpt lat="47.9232" lon="7.16064">
        <ele>424.4</ele>
        <time>2014-06-05T08:41:55Z</time>
      </trkpt>
      <trkpt lat="47.92317" lon="7.1605">
        <ele>425.2</ele>
        <time>2014-06-05T08:41:58Z</time>
      </trkpt>
      <trkpt lat="47.92309" lon="7.16039">
        <ele>425.8</ele>
        <time>2014-06-05T08:42:02Z</time>
      </trkpt>
      <trkpt lat="47.92306" lon="7.16054">
        <ele>425</ele>
        <time>2014-06-05T08:42:43Z</time>
      </trkpt>
      <trkpt lat="47.92317" lon="7.16084">
        <ele>425.3</ele>
        <time>2014-06-05T08:42:48Z</time>
      </trkpt>
      <trkpt lat="47.92322" lon="7.16103">
        <ele>424.7</ele>
        <time>2014-06-05T08:42:50Z</time>
      </trkpt>
      <trkpt lat="47.92325" lon="7.16126">
        <ele>424.2</ele>
        <time>2014-06-05T08:42:52Z</time>
      </trkpt>
      <trkpt lat="47.92328" lon="7.1615">
        <ele>423.8</ele>
        <time>2014-06-05T08:42:54Z</time>
      </trkpt>
      <trkpt lat="47.9233" lon="7.16176">
        <ele>423</ele>
        <time>2014-06-05T08:42:56Z</time>
      </trkpt>
      <trkpt lat="47.9233" lon="7.1619">
        <ele>422.7</ele>
        <time>2014-06-05T08:42:57Z</time>
      </trkpt>
      <trkpt lat="47.9233" lon="7.16214">
        <ele>421.8</ele>
        <time>2014-06-05T08:42:59Z</time>
      </trkpt>
      <trkpt lat="47.92329" lon="7.16232">
        <ele>421</ele>
        <time>2014-06-05T08:43:01Z</time>
      </trkpt>
      <trkpt lat="47.92328" lon="7.16245">
        <ele>419.7</ele>
        <time>2014-06-05T08:43:06Z</time>
      </trkpt>
      <trkpt lat="47.92332" lon="7.16262">
        <ele>418.5</ele>
        <time>2014-06-05T08:43:10Z</time>
      </trkpt>
      <trkpt lat="47.92331" lon="7.1628">
        <ele>417.8</ele>
        <time>2014-06-05T08:43:12Z</time>
      </trkpt>
      <trkpt lat="47.92329" lon="7.16302">
        <ele>417.1</ele>
        <time>2014-06-05T08:43:14Z</time>
      </trkpt>
      <trkpt lat="47.92324" lon="7.16347">
        <ele>415</ele>
        <time>2014-06-05T08:43:17Z</time>
      </trkpt>
      <trkpt lat="47.92321" lon="7.16381">
        <ele>415</ele>
        <time>2014-06-05T08:43:20Z</time>
      </trkpt>
      <trkpt lat="47.92321" lon="7.16395">
        <ele>414.8</ele>
        <time>2014-06-05T08:43:21Z</time>
      </trkpt>
      <trkpt lat="47.9232" lon="7.1641">
        <ele>414.5</ele>
        <time>2014-06-05T08:43:22Z</time>
      </trkpt>
      <trkpt lat="47.9232" lon="7.16424">
        <ele>414</ele>
        <time>2014-06-05T08:43:23Z</time>
      </trkpt>
      <trkpt lat="47.9232" lon="7.16439">
        <ele>413.7</ele>
        <time>2014-06-05T08:43:24Z</time>
      </trkpt>
      <trkpt lat="47.92319" lon="7.16453">
        <ele>413.2</ele>
        <time>2014-06-05T08:43:25Z</time>
      </trkpt>
      <trkpt lat="47.9232" lon="7.16467">
        <ele>412.6</ele>
        <time>2014-06-05T08:43:26Z</time>
      </trkpt>
      <trkpt lat="47.9232" lon="7.1648">
        <ele>412.1</ele>
        <time>2014-06-05T08:43:27Z</time>
      </trkpt>
      <trkpt lat="47.92319" lon="7.16494">
        <ele>411.8</ele>
        <time>2014-06-05T08:43:28Z</time>
      </trkpt>
      <trkpt lat="47.92318" lon="7.16509">
        <ele>411.4</ele>
        <time>2014-06-05T08:43:29Z</time>
      </trkpt>
      <trkpt lat="47.92315" lon="7.16522">
        <ele>410.9</ele>
        <time>2014-06-05T08:43:30Z</time>
      </trkpt>
      <trkpt lat="47.92311" lon="7.16536">
        <ele>410.3</ele>
        <time>2014-06-05T08:43:31Z</time>
      </trkpt>
      <trkpt lat="47.92305" lon="7.16549">
        <ele>409.8</ele>
        <time>2014-06-05T08:43:32Z</time>
      </trkpt>
      <trkpt lat="47.923" lon="7.1656">
        <ele>409.4</ele>
        <time>2014-06-05T08:43:33Z</time>
      </trkpt>
      <trkpt lat="47.92294" lon="7.16572">
        <ele>408.8</ele>
        <time>2014-06-05T08:43:34Z</time>
      </trkpt>
      <trkpt lat="47.92289" lon="7.16583">
        <ele>408.3</ele>
        <time>2014-06-05T08:43:35Z</time>
      </trkpt>
      <trkpt lat="47.92284" lon="7.16595">
        <ele>407.9</ele>
        <time>2014-06-05T08:43:36Z</time>
      </trkpt>
      <trkpt lat="47.92274" lon="7.16615">
        <ele>407.2</ele>
        <time>2014-06-05T08:43:38Z</time>
      </trkpt>
      <trkpt lat="47.92266" lon="7.16632">
        <ele>406.6</ele>
        <time>2014-06-05T08:43:40Z</time>
      </trkpt>
      <trkpt lat="47.9226" lon="7.16645">
        <ele>406</ele>
        <time>2014-06-05T08:43:42Z</time>
      </trkpt>
      <trkpt lat="47.92255" lon="7.16657">
        <ele>405.4</ele>
        <time>2014-06-05T08:43:44Z</time>
      </trkpt>
      <trkpt lat="47.9225" lon="7.16668">
        <ele>404.9</ele>
        <time>2014-06-05T08:43:46Z</time>
      </trkpt>
      <trkpt lat="47.9224" lon="7.16696">
        <ele>404.1</ele>
        <time>2014-06-05T08:43:50Z</time>
      </trkpt>
      <trkpt lat="47.92234" lon="7.16711">
        <ele>403.6</ele>
        <time>2014-06-05T08:43:52Z</time>
      </trkpt>
      <trkpt lat="47.92226" lon="7.16724">
        <ele>402.9</ele>
        <time>2014-06-05T08:43:54Z</time>
      </trkpt>
      <trkpt lat="47.92217" lon="7.16735">
        <ele>402.2</ele>
        <time>2014-06-05T08:43:56Z</time>
      </trkpt>
      <trkpt lat="47.92207" lon="7.16746">
        <ele>401.6</ele>
        <time>2014-06-05T08:43:58Z</time>
      </trkpt>
      <trkpt lat="47.92196" lon="7.16756">
        <ele>401</ele>
        <time>2014-06-05T08:44:00Z</time>
      </trkpt>
      <trkpt lat="47.92185" lon="7.16766">
        <ele>400.4</ele>
        <time>2014-06-05T08:44:02Z</time>
      </trkpt>
      <trkpt lat="47.92172" lon="7.16778">
        <ele>399.7</ele>
        <time>2014-06-05T08:44:04Z</time>
      </trkpt>
      <trkpt lat="47.92158" lon="7.16792">
        <ele>399.4</ele>
        <time>2014-06-05T08:44:06Z</time>
      </trkpt>
      <trkpt lat="47.92144" lon="7.16806">
        <ele>398.5</ele>
        <time>2014-06-05T08:44:08Z</time>
      </trkpt>
      <trkpt lat="47.9213" lon="7.16822">
        <ele>397.8</ele>
        <time>2014-06-05T08:44:10Z</time>
      </trkpt>
      <trkpt lat="47.92124" lon="7.16831">
        <ele>397.3</ele>
        <time>2014-06-05T08:44:11Z</time>
      </trkpt>
      <trkpt lat="47.92118" lon="7.16842">
        <ele>396.9</ele>
        <time>2014-06-05T08:44:12Z</time>
      </trkpt>
      <trkpt lat="47.92112" lon="7.16853">
        <ele>396.4</ele>
        <time>2014-06-05T08:44:13Z</time>
      </trkpt>
      <trkpt lat="47.92106" lon="7.16865">
        <ele>395.8</ele>
        <time>2014-06-05T08:44:14Z</time>
      </trkpt>
      <trkpt lat="47.92101" lon="7.16878">
        <ele>395.2</ele>
        <time>2014-06-05T08:44:15Z</time>
      </trkpt>
      <trkpt lat="47.92097" lon="7.16891">
        <ele>394.5</ele>
        <time>2014-06-05T08:44:16Z</time>
      </trkpt>
      <trkpt lat="47.92094" lon="7.16905">
        <ele>393.8</ele>
        <time>2014-06-05T08:44:17Z</time>
      </trkpt>
      <trkpt lat="47.92092" lon="7.16918">
        <ele>393.3</ele>
        <time>2014-06-05T08:44:18Z</time>
      </trkpt>
      <trkpt lat="47.92092" lon="7.16933">
        <ele>392.7</ele>
        <time>2014-06-05T08:44:19Z</time>
      </trkpt>
      <trkpt lat="47.92093" lon="7.16948">
        <ele>392.2</ele>
        <time>2014-06-05T08:44:20Z</time>
      </trkpt>
      <trkpt lat="47.92094" lon="7.16962">
        <ele>391.7</ele>
        <time>2014-06-05T08:44:21Z</time>
      </trkpt>
      <trkpt lat="47.92097" lon="7.16976">
        <ele>391</ele>
        <time>2014-06-05T08:44:22Z</time>
      </trkpt>
      <trkpt lat="47.921" lon="7.1699">
        <ele>390.4</ele>
        <time>2014-06-05T08:44:23Z</time>
      </trkpt>
      <trkpt lat="47.92103" lon="7.17003">
        <ele>389.9</ele>
        <time>2014-06-05T08:44:24Z</time>
      </trkpt>
      <trkpt lat="47.92106" lon="7.17028">
        <ele>388.9</ele>
        <time>2014-06-05T08:44:26Z</time>
      </trkpt>
      <trkpt lat="47.92103" lon="7.17049">
        <ele>387.9</ele>
        <time>2014-06-05T08:44:28Z</time>
      </trkpt>
      <trkpt lat="47.92096" lon="7.17066">
        <ele>387.1</ele>
        <time>2014-06-05T08:44:30Z</time>
      </trkpt>
      <trkpt lat="47.92085" lon="7.17074">
        <ele>386.3</ele>
        <time>2014-06-05T08:44:32Z</time>
      </trkpt>
      <trkpt lat="47.92076" lon="7.17078">
        <ele>385.7</ele>
        <time>2014-06-05T08:44:34Z</time>
      </trkpt>
      <trkpt lat="47.92066" lon="7.17074">
        <ele>385.6</ele>
        <time>2014-06-05T08:44:37Z</time>
      </trkpt>
      <trkpt lat="47.92061" lon="7.17063">
        <ele>388.2</ele>
        <time>2014-06-05T08:45:39Z</time>
      </trkpt>
      <trkpt lat="47.92051" lon="7.17033">
        <ele>389.5</ele>
        <time>2014-06-05T08:45:45Z</time>
      </trkpt>
      <trkpt lat="47.92046" lon="7.17021">
        <ele>389.9</ele>
        <time>2014-06-05T08:45:47Z</time>
      </trkpt>
      <trkpt lat="47.92045" lon="7.17005">
        <ele>391.1</ele>
        <time>2014-06-05T08:45:51Z</time>
      </trkpt>
      <trkpt lat="47.92041" lon="7.16991">
        <ele>392.1</ele>
        <time>2014-06-05T08:45:54Z</time>
      </trkpt>
      <trkpt lat="47.92037" lon="7.16978">
        <ele>393.4</ele>
        <time>2014-06-05T08:45:57Z</time>
      </trkpt>
      <trkpt lat="47.92033" lon="7.16963">
        <ele>393.9</ele>
        <time>2014-06-05T08:46:00Z</time>
      </trkpt>
      <trkpt lat="47.9203" lon="7.16947">
        <ele>394.7</ele>
        <time>2014-06-05T08:46:03Z</time>
      </trkpt>
      <trkpt lat="47.92026" lon="7.16931">
        <ele>395.1</ele>
        <time>2014-06-05T08:46:06Z</time>
      </trkpt>
      <trkpt lat="47.92024" lon="7.16912">
        <ele>396.1</ele>
        <time>2014-06-05T08:46:10Z</time>
      </trkpt>
      <trkpt lat="47.92025" lon="7.16899">
        <ele>396.9</ele>
        <time>2014-06-05T08:46:14Z</time>
      </trkpt>
      <trkpt lat="47.92024" lon="7.16883">
        <ele>398</ele>
        <time>2014-06-05T08:46:18Z</time>
      </trkpt>
      <trkpt lat="47.92021" lon="7.16869">
        <ele>398.9</ele>
        <time>2014-06-05T08:46:22Z</time>
      </trkpt>
      <trkpt lat="47.92018" lon="7.16856">
        <ele>399.6</ele>
        <time>2014-06-05T08:46:26Z</time>
      </trkpt>
      <trkpt lat="47.92013" lon="7.16843">
        <ele>400.3</ele>
        <time>2014-06-05T08:46:30Z</time>
      </trkpt>
      <trkpt lat="47.92007" lon="7.16832">
        <ele>400.9</ele>
        <time>2014-06-05T08:46:33Z</time>
      </trkpt>
      <trkpt lat="47.92" lon="7.16821">
        <ele>401.9</ele>
        <time>2014-06-05T08:46:37Z</time>
      </trkpt>
      <trkpt lat="47.91994" lon="7.1681">
        <ele>402.4</ele>
        <time>2014-06-05T08:46:40Z</time>
      </trkpt>
      <trkpt lat="47.91986" lon="7.16784">
        <ele>404.3</ele>
        <time>2014-06-05T08:46:50Z</time>
      </trkpt>
      <trkpt lat="47.91978" lon="7.16771">
        <ele>405.1</ele>
        <time>2014-06-05T08:46:54Z</time>
      </trkpt>
      <trkpt lat="47.91974" lon="7.16756">
        <ele>406.6</ele>
        <time>2014-06-05T08:47:01Z</time>
      </trkpt>
      <trkpt lat="47.91972" lon="7.16741">
        <ele>407.9</ele>
        <time>2014-06-05T08:47:07Z</time>
      </trkpt>
      <trkpt lat="47.91971" lon="7.16726">
        <ele>409.6</ele>
        <time>2014-06-05T08:47:15Z</time>
      </trkpt>
      <trkpt lat="47.91975" lon="7.16713">
        <ele>411.1</ele>
        <time>2014-06-05T08:47:20Z</time>
      </trkpt>
      <trkpt lat="47.9197" lon="7.16701">
        <ele>412.7</ele>
        <time>2014-06-05T08:47:26Z</time>
      </trkpt>
      <trkpt lat="47.91964" lon="7.1669">
        <ele>414.5</ele>
        <time>2014-06-05T08:47:32Z</time>
      </trkpt>
      <trkpt lat="47.91955" lon="7.16679">
        <ele>415.7</ele>
        <time>2014-06-05T08:47:38Z</time>
      </trkpt>
      <trkpt lat="47.91946" lon="7.16672">
        <ele>417.4</ele>
        <time>2014-06-05T08:47:44Z</time>
      </trkpt>
      <trkpt lat="47.91926" lon="7.16662">
        <ele>420.1</ele>
        <time>2014-06-05T08:47:55Z</time>
      </trkpt>
      <trkpt lat="47.91918" lon="7.16658">
        <ele>421.5</ele>
        <time>2014-06-05T08:48:02Z</time>
      </trkpt>
      <trkpt lat="47.9191" lon="7.16647">
        <ele>423.2</ele>
        <time>2014-06-05T08:48:08Z</time>
      </trkpt>
      <trkpt lat="47.91906" lon="7.16635">
        <ele>424</ele>
        <time>2014-06-05T08:48:11Z</time>
      </trkpt>
      <trkpt lat="47.91898" lon="7.16627">
        <ele>425.3</ele>
        <time>2014-06-05T08:48:16Z</time>
      </trkpt>
      <trkpt lat="47.9189" lon="7.16617">
        <ele>427.3</ele>
        <time>2014-06-05T08:48:24Z</time>
      </trkpt>
      <trkpt lat="47.9188" lon="7.1661">
        <ele>428.2</ele>
        <time>2014-06-05T08:48:28Z</time>
      </trkpt>
      <trkpt lat="47.91873" lon="7.166">
        <ele>429.3</ele>
        <time>2014-06-05T08:48:33Z</time>
      </trkpt>
      <trkpt lat="47.91866" lon="7.16589">
        <ele>430.3</ele>
        <time>2014-06-05T08:48:39Z</time>
      </trkpt>
      <trkpt lat="47.91858" lon="7.16579">
        <ele>431.7</ele>
        <time>2014-06-05T08:48:45Z</time>
      </trkpt>
      <trkpt lat="47.91848" lon="7.16554">
        <ele>433</ele>
        <time>2014-06-05T08:48:52Z</time>
      </trkpt>
      <trkpt lat="47.91843" lon="7.16539">
        <ele>433.9</ele>
        <time>2014-06-05T08:48:58Z</time>
      </trkpt>
      <trkpt lat="47.91837" lon="7.16528">
        <ele>434.3</ele>
        <time>2014-06-05T08:49:03Z</time>
      </trkpt>
      <trkpt lat="47.9183" lon="7.16517">
        <ele>435.4</ele>
        <time>2014-06-05T08:49:09Z</time>
      </trkpt>
      <trkpt lat="47.91824" lon="7.16505">
        <ele>436.3</ele>
        <time>2014-06-05T08:49:14Z</time>
      </trkpt>
      <trkpt lat="47.91818" lon="7.16489">
        <ele>436.9</ele>
        <time>2014-06-05T08:49:17Z</time>
      </trkpt>
      <trkpt lat="47.91815" lon="7.16475">
        <ele>437.6</ele>
        <time>2014-06-05T08:49:20Z</time>
      </trkpt>
      <trkpt lat="47.91815" lon="7.16459">
        <ele>438</ele>
        <time>2014-06-05T08:49:24Z</time>
      </trkpt>
      <trkpt lat="47.91818" lon="7.16446">
        <ele>439.2</ele>
        <time>2014-06-05T08:49:28Z</time>
      </trkpt>
      <trkpt lat="47.91819" lon="7.16431">
        <ele>440.4</ele>
        <time>2014-06-05T08:49:32Z</time>
      </trkpt>
      <trkpt lat="47.91823" lon="7.16417">
        <ele>441.5</ele>
        <time>2014-06-05T08:49:38Z</time>
      </trkpt>
      <trkpt lat="47.91827" lon="7.16403">
        <ele>443</ele>
        <time>2014-06-05T08:49:43Z</time>
      </trkpt>
      <trkpt lat="47.91822" lon="7.16389">
        <ele>445.4</ele>
        <time>2014-06-05T08:49:51Z</time>
      </trkpt>
      <trkpt lat="47.918" lon="7.16379">
        <ele>447.1</ele>
        <time>2014-06-05T08:49:59Z</time>
      </trkpt>
      <trkpt lat="47.91792" lon="7.16364">
        <ele>448.3</ele>
        <time>2014-06-05T08:50:03Z</time>
      </trkpt>
      <trkpt lat="47.91785" lon="7.16353">
        <ele>449.5</ele>
        <time>2014-06-05T08:50:07Z</time>
      </trkpt>
      <trkpt lat="47.91779" lon="7.16342">
        <ele>450.7</ele>
        <time>2014-06-05T08:50:13Z</time>
      </trkpt>
      <trkpt lat="47.91772" lon="7.1633">
        <ele>452.2</ele>
        <time>2014-06-05T08:50:21Z</time>
      </trkpt>
      <trkpt lat="47.91761" lon="7.16323">
        <ele>452.7</ele>
        <time>2014-06-05T08:50:24Z</time>
      </trkpt>
      <trkpt lat="47.91751" lon="7.16318">
        <ele>453</ele>
        <time>2014-06-05T08:50:27Z</time>
      </trkpt>
      <trkpt lat="47.91742" lon="7.16311">
        <ele>454</ele>
        <time>2014-06-05T08:50:31Z</time>
      </trkpt>
      <trkpt lat="47.91734" lon="7.16304">
        <ele>456.2</ele>
        <time>2014-06-05T08:50:39Z</time>
      </trkpt>
      <trkpt lat="47.91723" lon="7.16297">
        <ele>457.4</ele>
        <time>2014-06-05T08:50:45Z</time>
      </trkpt>
      <trkpt lat="47.91714" lon="7.16291">
        <ele>458.2</ele>
        <time>2014-06-05T08:50:49Z</time>
      </trkpt>
      <trkpt lat="47.91705" lon="7.16285">
        <ele>458.6</ele>
        <time>2014-06-05T08:50:53Z</time>
      </trkpt>
      <trkpt lat="47.91688" lon="7.16273">
        <ele>461.4</ele>
        <time>2014-06-05T08:51:06Z</time>
      </trkpt>
      <trkpt lat="47.91677" lon="7.16266">
        <ele>462.3</ele>
        <time>2014-06-05T08:51:10Z</time>
      </trkpt>
      <trkpt lat="47.91669" lon="7.16258">
        <ele>463.4</ele>
        <time>2014-06-05T08:51:15Z</time>
      </trkpt>
      <trkpt lat="47.9166" lon="7.16251">
        <ele>464.2</ele>
        <time>2014-06-05T08:51:20Z</time>
      </trkpt>
      <trkpt lat="47.9165" lon="7.16244">
        <ele>465.4</ele>
        <time>2014-06-05T08:51:26Z</time>
      </trkpt>
      <trkpt lat="47.91641" lon="7.16236">
        <ele>466.6</ele>
        <time>2014-06-05T08:51:32Z</time>
      </trkpt>
      <trkpt lat="47.91633" lon="7.16227">
        <ele>467.9</ele>
        <time>2014-06-05T08:51:38Z</time>
      </trkpt>
      <trkpt lat="47.91628" lon="7.16215">
        <ele>468.6</ele>
        <time>2014-06-05T08:51:42Z</time>
      </trkpt>
      <trkpt lat="47.9162" lon="7.16204">
        <ele>469.2</ele>
        <time>2014-06-05T08:51:45Z</time>
      </trkpt>
      <trkpt lat="47.91616" lon="7.16192">
        <ele>470.3</ele>
        <time>2014-06-05T08:51:52Z</time>
      </trkpt>
      <trkpt lat="47.91617" lon="7.16176">
        <ele>472.1</ele>
        <time>2014-06-05T08:51:59Z</time>
      </trkpt>
      <trkpt lat="47.91614" lon="7.16146">
        <ele>474.1</ele>
        <time>2014-06-05T08:52:08Z</time>
      </trkpt>
      <trkpt lat="47.91605" lon="7.16139">
        <ele>474.7</ele>
        <time>2014-06-05T08:52:11Z</time>
      </trkpt>
      <trkpt lat="47.91598" lon="7.16132">
        <ele>475.9</ele>
        <time>2014-06-05T08:52:17Z</time>
      </trkpt>
      <trkpt lat="47.91589" lon="7.16133">
        <ele>477.6</ele>
        <time>2014-06-05T08:52:24Z</time>
      </trkpt>
      <trkpt lat="47.91586" lon="7.16146">
        <ele>479.1</ele>
        <time>2014-06-05T08:52:32Z</time>
      </trkpt>
      <trkpt lat="47.91589" lon="7.1616">
        <ele>480.1</ele>
        <time>2014-06-05T08:52:38Z</time>
      </trkpt>
      <trkpt lat="47.91589" lon="7.16174">
        <ele>480.9</ele>
        <time>2014-06-05T08:52:43Z</time>
      </trkpt>
      <trkpt lat="47.91591" lon="7.16191">
        <ele>482.2</ele>
        <time>2014-06-05T08:52:50Z</time>
      </trkpt>
      <trkpt lat="47.91599" lon="7.162">
        <ele>483.5</ele>
        <time>2014-06-05T08:52:55Z</time>
      </trkpt>
      <trkpt lat="47.91601" lon="7.16215">
        <ele>484.6</ele>
        <time>2014-06-05T08:53:02Z</time>
      </trkpt>
      <trkpt lat="47.91604" lon="7.16244">
        <ele>486.9</ele>
        <time>2014-06-05T08:53:14Z</time>
      </trkpt>
      <trkpt lat="47.91603" lon="7.16258">
        <ele>488.3</ele>
        <time>2014-06-05T08:53:22Z</time>
      </trkpt>
      <trkpt lat="47.91602" lon="7.16272">
        <ele>489.8</ele>
        <time>2014-06-05T08:53:28Z</time>
      </trkpt>
      <trkpt lat="47.91598" lon="7.16285">
        <ele>490.8</ele>
        <time>2014-06-05T08:53:33Z</time>
      </trkpt>
      <trkpt lat="47.91595" lon="7.16298">
        <ele>491.5</ele>
        <time>2014-06-05T08:53:38Z</time>
      </trkpt>
      <trkpt lat="47.9159" lon="7.16311">
        <ele>492.5</ele>
        <time>2014-06-05T08:53:44Z</time>
      </trkpt>
      <trkpt lat="47.91594" lon="7.16324">
        <ele>493.2</ele>
        <time>2014-06-05T08:53:50Z</time>
      </trkpt>
      <trkpt lat="47.91604" lon="7.16327">
        <ele>495.3</ele>
        <time>2014-06-05T08:55:19Z</time>
      </trkpt>
      <trkpt lat="47.91582" lon="7.16326">
        <ele>494.4</ele>
        <time>2014-06-05T08:55:59Z</time>
      </trkpt>
      <trkpt lat="47.91571" lon="7.16325">
        <ele>494.3</ele>
        <time>2014-06-05T08:56:01Z</time>
      </trkpt>
      <trkpt lat="47.91559" lon="7.16326">
        <ele>494.3</ele>
        <time>2014-06-05T08:56:04Z</time>
      </trkpt>
      <trkpt lat="47.91548" lon="7.16323">
        <ele>494</ele>
        <time>2014-06-05T08:56:09Z</time>
      </trkpt>
      <trkpt lat="47.91557" lon="7.16321">
        <ele>494</ele>
        <time>2014-06-05T08:56:22Z</time>
      </trkpt>
      <trkpt lat="47.9157" lon="7.16341">
        <ele>496</ele>
        <time>2014-06-05T08:57:08Z</time>
      </trkpt>
      <trkpt lat="47.9157" lon="7.16355">
        <ele>498.3</ele>
        <time>2014-06-05T08:57:16Z</time>
      </trkpt>
      <trkpt lat="47.91564" lon="7.16365">
        <ele>500.2</ele>
        <time>2014-06-05T08:57:23Z</time>
      </trkpt>
      <trkpt lat="47.91549" lon="7.16384">
        <ele>502.3</ele>
        <time>2014-06-05T08:57:31Z</time>
      </trkpt>
      <trkpt lat="47.9154" lon="7.16394">
        <ele>503.3</ele>
        <time>2014-06-05T08:57:35Z</time>
      </trkpt>
      <trkpt lat="47.91532" lon="7.16402">
        <ele>504.4</ele>
        <time>2014-06-05T08:57:39Z</time>
      </trkpt>
      <trkpt lat="47.91523" lon="7.1641">
        <ele>505.3</ele>
        <time>2014-06-05T08:57:43Z</time>
      </trkpt>
      <trkpt lat="47.91515" lon="7.16419">
        <ele>506.6</ele>
        <time>2014-06-05T08:57:48Z</time>
      </trkpt>
      <trkpt lat="47.91506" lon="7.16427">
        <ele>507.8</ele>
        <time>2014-06-05T08:57:53Z</time>
      </trkpt>
      <trkpt lat="47.91497" lon="7.16436">
        <ele>509.1</ele>
        <time>2014-06-05T08:57:58Z</time>
      </trkpt>
      <trkpt lat="47.91489" lon="7.16443">
        <ele>509.6</ele>
        <time>2014-06-05T08:58:01Z</time>
      </trkpt>
      <trkpt lat="47.91481" lon="7.16452">
        <ele>511</ele>
        <time>2014-06-05T08:58:06Z</time>
      </trkpt>
      <trkpt lat="47.91476" lon="7.16464">
        <ele>512.5</ele>
        <time>2014-06-05T08:58:13Z</time>
      </trkpt>
      <trkpt lat="47.91468" lon="7.16472">
        <ele>513.2</ele>
        <time>2014-06-05T08:58:17Z</time>
      </trkpt>
      <trkpt lat="47.91458" lon="7.16478">
        <ele>514.2</ele>
        <time>2014-06-05T08:58:21Z</time>
      </trkpt>
      <trkpt lat="47.91449" lon="7.16486">
        <ele>515.6</ele>
        <time>2014-06-05T08:58:26Z</time>
      </trkpt>
      <trkpt lat="47.91446" lon="7.16518">
        <ele>517</ele>
        <time>2014-06-05T08:58:36Z</time>
      </trkpt>
      <trkpt lat="47.91436" lon="7.16517">
        <ele>517.3</ele>
        <time>2014-06-05T08:58:50Z</time>
      </trkpt>
      <trkpt lat="47.91427" lon="7.16516">
        <ele>517.7</ele>
        <time>2014-06-05T08:58:59Z</time>
      </trkpt>
      <trkpt lat="47.91417" lon="7.16517">
        <ele>517.7</ele>
        <time>2014-06-05T08:59:08Z</time>
      </trkpt>
      <trkpt lat="47.91409" lon="7.16514">
        <ele>518</ele>
        <time>2014-06-05T08:59:12Z</time>
      </trkpt>
      <trkpt lat="47.914" lon="7.16519">
        <ele>517.9</ele>
        <time>2014-06-05T08:59:18Z</time>
      </trkpt>
      <trkpt lat="47.91405" lon="7.1653">
        <ele>518.5</ele>
        <time>2014-06-05T08:59:25Z</time>
      </trkpt>
      <trkpt lat="47.91399" lon="7.16513">
        <ele>516.7</ele>
        <time>2014-06-05T09:00:02Z</time>
      </trkpt>
      <trkpt lat="47.9142" lon="7.16508">
        <ele>516.7</ele>
        <time>2014-06-05T09:00:45Z</time>
      </trkpt>
      <trkpt lat="47.91429" lon="7.16517">
        <ele>516.9</ele>
        <time>2014-06-05T09:00:47Z</time>
      </trkpt>
      <trkpt lat="47.9144" lon="7.16525">
        <ele>516.8</ele>
        <time>2014-06-05T09:00:49Z</time>
      </trkpt>
      <trkpt lat="47.91451" lon="7.16534">
        <ele>517.4</ele>
        <time>2014-06-05T09:00:51Z</time>
      </trkpt>
      <trkpt lat="47.91462" lon="7.16535">
        <ele>517.6</ele>
        <time>2014-06-05T09:00:55Z</time>
      </trkpt>
      <trkpt lat="47.91472" lon="7.16539">
        <ele>518.2</ele>
        <time>2014-06-05T09:00:59Z</time>
      </trkpt>
      <trkpt lat="47.91481" lon="7.16541">
        <ele>518.8</ele>
        <time>2014-06-05T09:01:04Z</time>
      </trkpt>
      <trkpt lat="47.91503" lon="7.16555">
        <ele>520.2</ele>
        <time>2014-06-05T09:01:12Z</time>
      </trkpt>
      <trkpt lat="47.91511" lon="7.16563">
        <ele>520.4</ele>
        <time>2014-06-05T09:01:15Z</time>
      </trkpt>
      <trkpt lat="47.9152" lon="7.16568">
        <ele>520.7</ele>
        <time>2014-06-05T09:01:18Z</time>
      </trkpt>
      <trkpt lat="47.9153" lon="7.16573">
        <ele>520.8</ele>
        <time>2014-06-05T09:01:21Z</time>
      </trkpt>
      <trkpt lat="47.91541" lon="7.16576">
        <ele>520.5</ele>
        <time>2014-06-05T09:01:26Z</time>
      </trkpt>
      <trkpt lat="47.91548" lon="7.16585">
        <ele>519.7</ele>
        <time>2014-06-05T09:01:42Z</time>
      </trkpt>
      <trkpt lat="47.91539" lon="7.1659">
        <ele>517</ele>
        <time>2014-06-05T09:05:14Z</time>
      </trkpt>
      <trkpt lat="47.91522" lon="7.16576">
        <ele>518.2</ele>
        <time>2014-06-05T09:05:24Z</time>
      </trkpt>
      <trkpt lat="47.91515" lon="7.16566">
        <ele>518.2</ele>
        <time>2014-06-05T09:05:28Z</time>
      </trkpt>
      <trkpt lat="47.91505" lon="7.16559">
        <ele>518.4</ele>
        <time>2014-06-05T09:05:32Z</time>
      </trkpt>
      <trkpt lat="47.91495" lon="7.16555">
        <ele>518.2</ele>
        <time>2014-06-05T09:05:36Z</time>
      </trkpt>
      <trkpt lat="47.91486" lon="7.16552">
        <ele>517.8</ele>
        <time>2014-06-05T09:05:39Z</time>
      </trkpt>
      <trkpt lat="47.91476" lon="7.1655">
        <ele>517.9</ele>
        <time>2014-06-05T09:05:42Z</time>
      </trkpt>
      <trkpt lat="47.91467" lon="7.16549">
        <ele>517.5</ele>
        <time>2014-06-05T09:05:45Z</time>
      </trkpt>
      <trkpt lat="47.91458" lon="7.16544">
        <ele>517</ele>
        <time>2014-06-05T09:05:49Z</time>
      </trkpt>
      <trkpt lat="47.91447" lon="7.1654">
        <ele>516.8</ele>
        <time>2014-06-05T09:05:53Z</time>
      </trkpt>
      <trkpt lat="47.91439" lon="7.16533">
        <ele>516.4</ele>
        <time>2014-06-05T09:05:57Z</time>
      </trkpt>
      <trkpt lat="47.91436" lon="7.16519">
        <ele>515.8</ele>
        <time>2014-06-05T09:06:03Z</time>
      </trkpt>
      <trkpt lat="47.91438" lon="7.16503">
        <ele>515.2</ele>
        <time>2014-06-05T09:06:08Z</time>
      </trkpt>
      <trkpt lat="47.91443" lon="7.1649">
        <ele>515.1</ele>
        <time>2014-06-05T09:06:11Z</time>
      </trkpt>
      <trkpt lat="47.91448" lon="7.16476">
        <ele>514.5</ele>
        <time>2014-06-05T09:06:13Z</time>
      </trkpt>
      <trkpt lat="47.9145" lon="7.16463">
        <ele>513.7</ele>
        <time>2014-06-05T09:06:15Z</time>
      </trkpt>
      <trkpt lat="47.91456" lon="7.16435">
        <ele>512.1</ele>
        <time>2014-06-05T09:06:19Z</time>
      </trkpt>
      <trkpt lat="47.9146" lon="7.16421">
        <ele>511.4</ele>
        <time>2014-06-05T09:06:21Z</time>
      </trkpt>
      <trkpt lat="47.91463" lon="7.16408">
        <ele>510.5</ele>
        <time>2014-06-05T09:06:23Z</time>
      </trkpt>
      <trkpt lat="47.91468" lon="7.16397">
        <ele>509.3</ele>
        <time>2014-06-05T09:06:25Z</time>
      </trkpt>
      <trkpt lat="47.91476" lon="7.16385">
        <ele>508.3</ele>
        <time>2014-06-05T09:06:27Z</time>
      </trkpt>
      <trkpt lat="47.91482" lon="7.16375">
        <ele>506.9</ele>
        <time>2014-06-05T09:06:29Z</time>
      </trkpt>
      <trkpt lat="47.91492" lon="7.16362">
        <ele>505.3</ele>
        <time>2014-06-05T09:06:32Z</time>
      </trkpt>
      <trkpt lat="47.91498" lon="7.1635">
        <ele>503.1</ele>
        <time>2014-06-05T09:06:35Z</time>
      </trkpt>
      <trkpt lat="47.91496" lon="7.16335">
        <ele>500.1</ele>
        <time>2014-06-05T09:06:41Z</time>
      </trkpt>
      <trkpt lat="47.91487" lon="7.16327">
        <ele>497.5</ele>
        <time>2014-06-05T09:06:46Z</time>
      </trkpt>
      <trkpt lat="47.91478" lon="7.1632">
        <ele>496.6</ele>
        <time>2014-06-05T09:06:49Z</time>
      </trkpt>
      <trkpt lat="47.91477" lon="7.16306">
        <ele>495.5</ele>
        <time>2014-06-05T09:08:31Z</time>
      </trkpt>
      <trkpt lat="47.91484" lon="7.16277">
        <ele>495.7</ele>
        <time>2014-06-05T09:08:37Z</time>
      </trkpt>
      <trkpt lat="47.91485" lon="7.16261">
        <ele>495.9</ele>
        <time>2014-06-05T09:08:40Z</time>
      </trkpt>
      <trkpt lat="47.91488" lon="7.16245">
        <ele>496.4</ele>
        <time>2014-06-05T09:08:44Z</time>
      </trkpt>
      <trkpt lat="47.91492" lon="7.16229">
        <ele>497</ele>
        <time>2014-06-05T09:08:48Z</time>
      </trkpt>
      <trkpt lat="47.91492" lon="7.16215">
        <ele>497.5</ele>
        <time>2014-06-05T09:08:51Z</time>
      </trkpt>
      <trkpt lat="47.91488" lon="7.162">
        <ele>498.1</ele>
        <time>2014-06-05T09:08:54Z</time>
      </trkpt>
      <trkpt lat="47.91484" lon="7.16186">
        <ele>498.9</ele>
        <time>2014-06-05T09:08:57Z</time>
      </trkpt>
      <trkpt lat="47.9148" lon="7.16169">
        <ele>499.8</ele>
        <time>2014-06-05T09:09:01Z</time>
      </trkpt>
      <trkpt lat="47.91472" lon="7.16156">
        <ele>500.4</ele>
        <time>2014-06-05T09:09:04Z</time>
      </trkpt>
      <trkpt lat="47.91467" lon="7.16144">
        <ele>501.6</ele>
        <time>2014-06-05T09:09:07Z</time>
      </trkpt>
      <trkpt lat="47.91459" lon="7.16133">
        <ele>502.1</ele>
        <time>2014-06-05T09:09:11Z</time>
      </trkpt>
      <trkpt lat="47.9145" lon="7.16123">
        <ele>503.1</ele>
        <time>2014-06-05T09:09:15Z</time>
      </trkpt>
      <trkpt lat="47.91445" lon="7.16111">
        <ele>504.2</ele>
        <time>2014-06-05T09:09:20Z</time>
      </trkpt>
      <trkpt lat="47.91437" lon="7.16101">
        <ele>505.1</ele>
        <time>2014-06-05T09:09:24Z</time>
      </trkpt>
      <trkpt lat="47.91429" lon="7.16092">
        <ele>506.1</ele>
        <time>2014-06-05T09:09:27Z</time>
      </trkpt>
      <trkpt lat="47.91421" lon="7.16081">
        <ele>507</ele>
        <time>2014-06-05T09:09:30Z</time>
      </trkpt>
      <trkpt lat="47.91413" lon="7.1607">
        <ele>507.7</ele>
        <time>2014-06-05T09:09:34Z</time>
      </trkpt>
      <trkpt lat="47.91398" lon="7.16048">
        <ele>509.4</ele>
        <time>2014-06-05T09:09:41Z</time>
      </trkpt>
      <trkpt lat="47.91391" lon="7.16039">
        <ele>510.1</ele>
        <time>2014-06-05T09:09:45Z</time>
      </trkpt>
      <trkpt lat="47.91384" lon="7.16026">
        <ele>511.1</ele>
        <time>2014-06-05T09:09:51Z</time>
      </trkpt>
      <trkpt lat="47.91378" lon="7.16014">
        <ele>520.9</ele>
        <time>2014-06-05T09:11:10Z</time>
      </trkpt>
      <trkpt lat="47.91373" lon="7.15997">
        <ele>522.9</ele>
        <time>2014-06-05T09:11:25Z</time>
      </trkpt>
      <trkpt lat="47.91342" lon="7.15973">
        <ele>524</ele>
        <time>2014-06-05T09:11:36Z</time>
      </trkpt>
      <trkpt lat="47.91326" lon="7.15963">
        <ele>525.7</ele>
        <time>2014-06-05T09:11:41Z</time>
      </trkpt>
      <trkpt lat="47.91317" lon="7.15956">
        <ele>528</ele>
        <time>2014-06-05T09:11:51Z</time>
      </trkpt>
      <trkpt lat="47.91308" lon="7.15951">
        <ele>529.9</ele>
        <time>2014-06-05T09:12:02Z</time>
      </trkpt>
      <trkpt lat="47.91298" lon="7.15952">
        <ele>531</ele>
        <time>2014-06-05T09:12:09Z</time>
      </trkpt>
      <trkpt lat="47.91289" lon="7.15949">
        <ele>534.2</ele>
        <time>2014-06-05T09:12:20Z</time>
      </trkpt>
      <trkpt lat="47.9127" lon="7.15949">
        <ele>538.2</ele>
        <time>2014-06-05T09:12:38Z</time>
      </trkpt>
      <trkpt lat="47.91258" lon="7.15948">
        <ele>540.3</ele>
        <time>2014-06-05T09:12:52Z</time>
      </trkpt>
      <trkpt lat="47.91247" lon="7.15943">
        <ele>545.9</ele>
        <time>2014-06-05T09:13:18Z</time>
      </trkpt>
      <trkpt lat="47.91238" lon="7.15942">
        <ele>547.1</ele>
        <time>2014-06-05T09:13:25Z</time>
      </trkpt>
      <trkpt lat="47.91221" lon="7.15939">
        <ele>549</ele>
        <time>2014-06-05T09:13:44Z</time>
      </trkpt>
      <trkpt lat="47.9121" lon="7.15937">
        <ele>552.1</ele>
        <time>2014-06-05T09:14:04Z</time>
      </trkpt>
      <trkpt lat="47.91201" lon="7.15931">
        <ele>555.9</ele>
        <time>2014-06-05T09:14:31Z</time>
      </trkpt>
      <trkpt lat="47.91188" lon="7.15954">
        <ele>555.9</ele>
        <time>2014-06-05T09:14:40Z</time>
      </trkpt>
      <trkpt lat="47.91197" lon="7.15941">
        <ele>558.6</ele>
        <time>2014-06-05T09:14:58Z</time>
      </trkpt>
      <trkpt lat="47.91191" lon="7.15929">
        <ele>558.4</ele>
        <time>2014-06-05T09:15:06Z</time>
      </trkpt>
      <trkpt lat="47.9119" lon="7.15915">
        <ele>560.5</ele>
        <time>2014-06-05T09:15:20Z</time>
      </trkpt>
      <trkpt lat="47.91199" lon="7.15909">
        <ele>561.5</ele>
        <time>2014-06-05T09:15:26Z</time>
      </trkpt>
      <trkpt lat="47.91207" lon="7.15901">
        <ele>566.4</ele>
        <time>2014-06-05T09:15:56Z</time>
      </trkpt>
      <trkpt lat="47.91219" lon="7.15873">
        <ele>569.2</ele>
        <time>2014-06-05T09:16:15Z</time>
      </trkpt>
      <trkpt lat="47.91219" lon="7.15857">
        <ele>572</ele>
        <time>2014-06-05T09:16:33Z</time>
      </trkpt>
      <trkpt lat="47.91221" lon="7.15843">
        <ele>574.2</ele>
        <time>2014-06-05T09:16:45Z</time>
      </trkpt>
      <trkpt lat="47.91214" lon="7.15852">
        <ele>577.1</ele>
        <time>2014-06-05T09:17:02Z</time>
      </trkpt>
      <trkpt lat="47.91206" lon="7.15848">
        <ele>582</ele>
        <time>2014-06-05T09:17:28Z</time>
      </trkpt>
      <trkpt lat="47.91201" lon="7.15836">
        <ele>584.5</ele>
        <time>2014-06-05T09:17:42Z</time>
      </trkpt>
      <trkpt lat="47.91192" lon="7.15838">
        <ele>588.3</ele>
        <time>2014-06-05T09:18:07Z</time>
      </trkpt>
      <trkpt lat="47.91172" lon="7.15845">
        <ele>591.5</ele>
        <time>2014-06-05T09:18:48Z</time>
      </trkpt>
      <trkpt lat="47.91163" lon="7.15848">
        <ele>593.3</ele>
        <time>2014-06-05T09:18:57Z</time>
      </trkpt>
      <trkpt lat="47.91154" lon="7.1585">
        <ele>594.3</ele>
        <time>2014-06-05T09:19:05Z</time>
      </trkpt>
      <trkpt lat="47.91144" lon="7.15849">
        <ele>595.3</ele>
        <time>2014-06-05T09:19:14Z</time>
      </trkpt>
      <trkpt lat="47.91125" lon="7.15845">
        <ele>599.5</ele>
        <time>2014-06-05T09:19:33Z</time>
      </trkpt>
      <trkpt lat="47.91116" lon="7.15843">
        <ele>600.8</ele>
        <time>2014-06-05T09:19:43Z</time>
      </trkpt>
      <trkpt lat="47.91106" lon="7.15845">
        <ele>602.2</ele>
        <time>2014-06-05T09:19:53Z</time>
      </trkpt>
      <trkpt lat="47.91097" lon="7.15844">
        <ele>604.3</ele>
        <time>2014-06-05T09:20:03Z</time>
      </trkpt>
      <trkpt lat="47.91088" lon="7.15847">
        <ele>604.9</ele>
        <time>2014-06-05T09:20:09Z</time>
      </trkpt>
      <trkpt lat="47.91079" lon="7.15848">
        <ele>607</ele>
        <time>2014-06-05T09:20:19Z</time>
      </trkpt>
      <trkpt lat="47.9106" lon="7.15851">
        <ele>611.9</ele>
        <time>2014-06-05T09:20:40Z</time>
      </trkpt>
      <trkpt lat="47.91053" lon="7.1586">
        <ele>613.1</ele>
        <time>2014-06-05T09:20:47Z</time>
      </trkpt>
      <trkpt lat="47.91055" lon="7.15873">
        <ele>615.1</ele>
        <time>2014-06-05T09:20:59Z</time>
      </trkpt>
      <trkpt lat="47.9105" lon="7.15885">
        <ele>616.6</ele>
        <time>2014-06-05T09:21:07Z</time>
      </trkpt>
      <trkpt lat="47.91059" lon="7.15888">
        <ele>617.7</ele>
        <time>2014-06-05T09:21:27Z</time>
      </trkpt>
      <trkpt lat="47.91052" lon="7.15886">
        <ele>617.2</ele>
        <time>2014-06-05T09:22:28Z</time>
      </trkpt>
      <trkpt lat="47.91062" lon="7.15861">
        <ele>619.6</ele>
        <time>2014-06-05T09:22:42Z</time>
      </trkpt>
      <trkpt lat="47.91067" lon="7.15848">
        <ele>620.5</ele>
        <time>2014-06-05T09:22:49Z</time>
      </trkpt>
      <trkpt lat="47.91071" lon="7.15836">
        <ele>622.9</ele>
        <time>2014-06-05T09:23:00Z</time>
      </trkpt>
      <trkpt lat="47.91077" lon="7.15825">
        <ele>625.4</ele>
        <time>2014-06-05T09:23:11Z</time>
      </trkpt>
      <trkpt lat="47.91082" lon="7.15813">
        <ele>627.3</ele>
        <time>2014-06-05T09:23:22Z</time>
      </trkpt>
      <trkpt lat="47.91087" lon="7.15801">
        <ele>629.4</ele>
        <time>2014-06-05T09:23:32Z</time>
      </trkpt>
      <trkpt lat="47.91069" lon="7.15796">
        <ele>635.1</ele>
        <time>2014-06-05T09:24:01Z</time>
      </trkpt>
      <trkpt lat="47.91061" lon="7.15801">
        <ele>636.9</ele>
        <time>2014-06-05T09:24:10Z</time>
      </trkpt>
      <trkpt lat="47.91052" lon="7.15808">
        <ele>638.2</ele>
        <time>2014-06-05T09:24:18Z</time>
      </trkpt>
      <trkpt lat="47.91046" lon="7.15817">
        <ele>641.9</ele>
        <time>2014-06-05T09:24:50Z</time>
      </trkpt>
      <trkpt lat="47.91033" lon="7.15837">
        <ele>647.6</ele>
        <time>2014-06-05T09:25:16Z</time>
      </trkpt>
      <trkpt lat="47.91025" lon="7.15846">
        <ele>649.1</ele>
        <time>2014-06-05T09:25:26Z</time>
      </trkpt>
      <trkpt lat="47.91016" lon="7.1585">
        <ele>651.1</ele>
        <time>2014-06-05T09:25:36Z</time>
      </trkpt>
      <trkpt lat="47.91008" lon="7.15845">
        <ele>653.1</ele>
        <time>2014-06-05T09:25:48Z</time>
      </trkpt>
      <trkpt lat="47.90999" lon="7.15845">
        <ele>654.8</ele>
        <time>2014-06-05T09:26:00Z</time>
      </trkpt>
      <trkpt lat="47.90978" lon="7.15854">
        <ele>655.5</ele>
        <time>2014-06-05T09:26:42Z</time>
      </trkpt>
      <trkpt lat="47.90971" lon="7.15845">
        <ele>656.4</ele>
        <time>2014-06-05T09:26:52Z</time>
      </trkpt>
      <trkpt lat="47.90973" lon="7.15831">
        <ele>656.4</ele>
        <time>2014-06-05T09:26:58Z</time>
      </trkpt>
      <trkpt lat="47.90979" lon="7.1582">
        <ele>656.8</ele>
        <time>2014-06-05T09:27:06Z</time>
      </trkpt>
      <trkpt lat="47.90959" lon="7.15822">
        <ele>656.8</ele>
        <time>2014-06-05T09:27:27Z</time>
      </trkpt>
      <trkpt lat="47.9095" lon="7.15821">
        <ele>656</ele>
        <time>2014-06-05T09:27:31Z</time>
      </trkpt>
      <trkpt lat="47.90941" lon="7.1583">
        <ele>655.3</ele>
        <time>2014-06-05T09:27:34Z</time>
      </trkpt>
      <trkpt lat="47.90936" lon="7.15842">
        <ele>654.3</ele>
        <time>2014-06-05T09:27:37Z</time>
      </trkpt>
      <trkpt lat="47.90934" lon="7.15856">
        <ele>653.5</ele>
        <time>2014-06-05T09:27:39Z</time>
      </trkpt>
      <trkpt lat="47.90936" lon="7.15874">
        <ele>652.7</ele>
        <time>2014-06-05T09:27:42Z</time>
      </trkpt>
      <trkpt lat="47.90936" lon="7.15888">
        <ele>652</ele>
        <time>2014-06-05T09:27:44Z</time>
      </trkpt>
      <trkpt lat="47.90936" lon="7.15903">
        <ele>650.5</ele>
        <time>2014-06-05T09:27:47Z</time>
      </trkpt>
      <trkpt lat="47.90938" lon="7.15918">
        <ele>648.5</ele>
        <time>2014-06-05T09:27:52Z</time>
      </trkpt>
      <trkpt lat="47.90947" lon="7.15913">
        <ele>634.7</ele>
        <time>2014-06-05T09:28:22Z</time>
      </trkpt>
      <trkpt lat="47.90984" lon="7.1591">
        <ele>626</ele>
        <time>2014-06-05T09:28:37Z</time>
      </trkpt>
      <trkpt lat="47.91008" lon="7.15903">
        <ele>622.9</ele>
        <time>2014-06-05T09:28:42Z</time>
      </trkpt>
      <trkpt lat="47.91002" lon="7.15889">
        <ele>617.1</ele>
        <time>2014-06-05T09:28:50Z</time>
      </trkpt>
      <trkpt lat="47.90991" lon="7.15885">
        <ele>614.6</ele>
        <time>2014-06-05T09:28:54Z</time>
      </trkpt>
      <trkpt lat="47.90981" lon="7.15878">
        <ele>609.9</ele>
        <time>2014-06-05T09:29:01Z</time>
      </trkpt>
      <trkpt lat="47.9097" lon="7.15872">
        <ele>607.2</ele>
        <time>2014-06-05T09:29:06Z</time>
      </trkpt>
      <trkpt lat="47.90962" lon="7.15867">
        <ele>605.3</ele>
        <time>2014-06-05T09:29:10Z</time>
      </trkpt>
      <trkpt lat="47.90953" lon="7.15857">
        <ele>604.4</ele>
        <time>2014-06-05T09:29:12Z</time>
      </trkpt>
      <trkpt lat="47.90944" lon="7.15858">
        <ele>601.8</ele>
        <time>2014-06-05T09:29:17Z</time>
      </trkpt>
      <trkpt lat="47.90946" lon="7.15871">
        <ele>599.3</ele>
        <time>2014-06-05T09:29:22Z</time>
      </trkpt>
      <trkpt lat="47.90943" lon="7.15884">
        <ele>596.6</ele>
        <time>2014-06-05T09:29:27Z</time>
      </trkpt>
      <trkpt lat="47.90945" lon="7.15913">
        <ele>590.8</ele>
        <time>2014-06-05T09:29:37Z</time>
      </trkpt>
      <trkpt lat="47.90937" lon="7.15923">
        <ele>587.4</ele>
        <time>2014-06-05T09:29:43Z</time>
      </trkpt>
      <trkpt lat="47.90927" lon="7.15926">
        <ele>585.7</ele>
        <time>2014-06-05T09:29:46Z</time>
      </trkpt>
      <trkpt lat="47.90913" lon="7.1593">
        <ele>583.8</ele>
        <time>2014-06-05T09:29:49Z</time>
      </trkpt>
      <trkpt lat="47.90904" lon="7.15933">
        <ele>582.1</ele>
        <time>2014-06-05T09:29:51Z</time>
      </trkpt>
      <trkpt lat="47.90894" lon="7.15926">
        <ele>579.8</ele>
        <time>2014-06-05T09:29:54Z</time>
      </trkpt>
      <trkpt lat="47.90885" lon="7.15919">
        <ele>577.8</ele>
        <time>2014-06-05T09:29:57Z</time>
      </trkpt>
      <trkpt lat="47.90877" lon="7.15907">
        <ele>575.8</ele>
        <time>2014-06-05T09:30:00Z</time>
      </trkpt>
      <trkpt lat="47.90866" lon="7.15906">
        <ele>572.6</ele>
        <time>2014-06-05T09:30:04Z</time>
      </trkpt>
      <trkpt lat="47.90857" lon="7.15907">
        <ele>570.4</ele>
        <time>2014-06-05T09:30:07Z</time>
      </trkpt>
      <trkpt lat="47.90847" lon="7.15903">
        <ele>568.9</ele>
        <time>2014-06-05T09:30:09Z</time>
      </trkpt>
      <trkpt lat="47.90837" lon="7.15895">
        <ele>567.4</ele>
        <time>2014-06-05T09:30:11Z</time>
      </trkpt>
      <trkpt lat="47.90827" lon="7.15892">
        <ele>565.8</ele>
        <time>2014-06-05T09:30:13Z</time>
      </trkpt>
      <trkpt lat="47.90814" lon="7.15884">
        <ele>563.3</ele>
        <time>2014-06-05T09:30:16Z</time>
      </trkpt>
      <trkpt lat="47.90804" lon="7.15879">
        <ele>561.5</ele>
        <time>2014-06-05T09:30:18Z</time>
      </trkpt>
      <trkpt lat="47.90792" lon="7.15873">
        <ele>559</ele>
        <time>2014-06-05T09:30:21Z</time>
      </trkpt>
      <trkpt lat="47.90782" lon="7.15867">
        <ele>557.2</ele>
        <time>2014-06-05T09:30:23Z</time>
      </trkpt>
      <trkpt lat="47.9077" lon="7.15863">
        <ele>555.2</ele>
        <time>2014-06-05T09:30:25Z</time>
      </trkpt>
      <trkpt lat="47.90758" lon="7.15862">
        <ele>553.5</ele>
        <time>2014-06-05T09:30:27Z</time>
      </trkpt>
      <trkpt lat="47.90745" lon="7.15864">
        <ele>551.8</ele>
        <time>2014-06-05T09:30:29Z</time>
      </trkpt>
      <trkpt lat="47.9072" lon="7.15866">
        <ele>548.3</ele>
        <time>2014-06-05T09:30:33Z</time>
      </trkpt>
      <trkpt lat="47.90707" lon="7.15867">
        <ele>546.8</ele>
        <time>2014-06-05T09:30:35Z</time>
      </trkpt>
      <trkpt lat="47.90696" lon="7.15863">
        <ele>545.2</ele>
        <time>2014-06-05T09:30:37Z</time>
      </trkpt>
      <trkpt lat="47.90683" lon="7.15859">
        <ele>543.5</ele>
        <time>2014-06-05T09:30:39Z</time>
      </trkpt>
      <trkpt lat="47.90673" lon="7.15851">
        <ele>542.3</ele>
        <time>2014-06-05T09:30:41Z</time>
      </trkpt>
      <trkpt lat="47.9066" lon="7.1585">
        <ele>541</ele>
        <time>2014-06-05T09:30:43Z</time>
      </trkpt>
      <trkpt lat="47.90646" lon="7.15851">
        <ele>539.6</ele>
        <time>2014-06-05T09:30:45Z</time>
      </trkpt>
      <trkpt lat="47.90633" lon="7.15844">
        <ele>538.4</ele>
        <time>2014-06-05T09:30:47Z</time>
      </trkpt>
      <trkpt lat="47.9062" lon="7.15831">
        <ele>537.3</ele>
        <time>2014-06-05T09:30:49Z</time>
      </trkpt>
      <trkpt lat="47.90611" lon="7.15816">
        <ele>536.5</ele>
        <time>2014-06-05T09:30:51Z</time>
      </trkpt>
      <trkpt lat="47.90604" lon="7.15804">
        <ele>535.6</ele>
        <time>2014-06-05T09:30:53Z</time>
      </trkpt>
      <trkpt lat="47.90598" lon="7.15793">
        <ele>535</ele>
        <time>2014-06-05T09:30:55Z</time>
      </trkpt>
      <trkpt lat="47.90593" lon="7.15777">
        <ele>534.2</ele>
        <time>2014-06-05T09:30:58Z</time>
      </trkpt>
      <trkpt lat="47.90589" lon="7.15762">
        <ele>534</ele>
        <time>2014-06-05T09:31:01Z</time>
      </trkpt>
      <trkpt lat="47.90583" lon="7.15747">
        <ele>533.8</ele>
        <time>2014-06-05T09:31:04Z</time>
      </trkpt>
      <trkpt lat="47.90575" lon="7.15733">
        <ele>533.6</ele>
        <time>2014-06-05T09:31:07Z</time>
      </trkpt>
      <trkpt lat="47.90566" lon="7.15718">
        <ele>533.5</ele>
        <time>2014-06-05T09:31:10Z</time>
      </trkpt>
      <trkpt lat="47.90559" lon="7.1571">
        <ele>533.2</ele>
        <time>2014-06-05T09:31:12Z</time>
      </trkpt>
      <trkpt lat="47.90548" lon="7.15701">
        <ele>533.3</ele>
        <time>2014-06-05T09:31:15Z</time>
      </trkpt>
      <trkpt lat="47.90536" lon="7.15694">
        <ele>533.4</ele>
        <time>2014-06-05T09:31:18Z</time>
      </trkpt>
      <trkpt lat="47.90527" lon="7.15689">
        <ele>533.3</ele>
        <time>2014-06-05T09:31:20Z</time>
      </trkpt>
      <trkpt lat="47.90515" lon="7.15686">
        <ele>533.6</ele>
        <time>2014-06-05T09:31:23Z</time>
      </trkpt>
      <trkpt lat="47.90504" lon="7.15687">
        <ele>534.1</ele>
        <time>2014-06-05T09:31:27Z</time>
      </trkpt>
      <trkpt lat="47.905" lon="7.15669">
        <ele>528.9</ele>
        <time>2014-06-05T09:32:12Z</time>
      </trkpt>
      <trkpt lat="47.90488" lon="7.15645">
        <ele>528.3</ele>
        <time>2014-06-05T09:32:21Z</time>
      </trkpt>
      <trkpt lat="47.90481" lon="7.15636">
        <ele>528.3</ele>
        <time>2014-06-05T09:32:23Z</time>
      </trkpt>
      <trkpt lat="47.90474" lon="7.15627">
        <ele>528.3</ele>
        <time>2014-06-05T09:32:26Z</time>
      </trkpt>
      <trkpt lat="47.90467" lon="7.15615">
        <ele>528.4</ele>
        <time>2014-06-05T09:32:30Z</time>
      </trkpt>
      <trkpt lat="47.90461" lon="7.15604">
        <ele>528.4</ele>
        <time>2014-06-05T09:32:33Z</time>
      </trkpt>
      <trkpt lat="47.90455" lon="7.15593">
        <ele>528.5</ele>
        <time>2014-06-05T09:32:36Z</time>
      </trkpt>
      <trkpt lat="47.90447" lon="7.15581">
        <ele>528.7</ele>
        <time>2014-06-05T09:32:40Z</time>
      </trkpt>
      <trkpt lat="47.90441" lon="7.15568">
        <ele>529.2</ele>
        <time>2014-06-05T09:32:45Z</time>
      </trkpt>
      <trkpt lat="47.90432" lon="7.15557">
        <ele>529.2</ele>
        <time>2014-06-05T09:32:48Z</time>
      </trkpt>
      <trkpt lat="47.90424" lon="7.15549">
        <ele>529.6</ele>
        <time>2014-06-05T09:32:51Z</time>
      </trkpt>
      <trkpt lat="47.90414" lon="7.1554">
        <ele>529.8</ele>
        <time>2014-06-05T09:32:54Z</time>
      </trkpt>
      <trkpt lat="47.90406" lon="7.15534">
        <ele>530</ele>
        <time>2014-06-05T09:32:57Z</time>
      </trkpt>
      <trkpt lat="47.90397" lon="7.15529">
        <ele>530.4</ele>
        <time>2014-06-05T09:33:01Z</time>
      </trkpt>
      <trkpt lat="47.9039" lon="7.1552">
        <ele>530</ele>
        <time>2014-06-05T09:33:11Z</time>
      </trkpt>
      <trkpt lat="47.90363" lon="7.15518">
        <ele>524</ele>
        <time>2014-06-05T09:33:54Z</time>
      </trkpt>
      <trkpt lat="47.90346" lon="7.15505">
        <ele>523.7</ele>
        <time>2014-06-05T09:34:03Z</time>
      </trkpt>
      <trkpt lat="47.90338" lon="7.15496">
        <ele>523.4</ele>
        <time>2014-06-05T09:34:07Z</time>
      </trkpt>
      <trkpt lat="47.9033" lon="7.15486">
        <ele>524.1</ele>
        <time>2014-06-05T09:34:13Z</time>
      </trkpt>
      <trkpt lat="47.90321" lon="7.1548">
        <ele>524.7</ele>
        <time>2014-06-05T09:34:19Z</time>
      </trkpt>
      <trkpt lat="47.90312" lon="7.15474">
        <ele>525.1</ele>
        <time>2014-06-05T09:34:23Z</time>
      </trkpt>
      <trkpt lat="47.90303" lon="7.15469">
        <ele>525.6</ele>
        <time>2014-06-05T09:34:28Z</time>
      </trkpt>
      <trkpt lat="47.90293" lon="7.15464">
        <ele>525.9</ele>
        <time>2014-06-05T09:34:32Z</time>
      </trkpt>
      <trkpt lat="47.90282" lon="7.15456">
        <ele>526.1</ele>
        <time>2014-06-05T09:34:36Z</time>
      </trkpt>
      <trkpt lat="47.90273" lon="7.15453">
        <ele>526.6</ele>
        <time>2014-06-05T09:34:39Z</time>
      </trkpt>
      <trkpt lat="47.90263" lon="7.15453">
        <ele>527</ele>
        <time>2014-06-05T09:34:42Z</time>
      </trkpt>
      <trkpt lat="47.90253" lon="7.15452">
        <ele>527.4</ele>
        <time>2014-06-05T09:34:46Z</time>
      </trkpt>
      <trkpt lat="47.90242" lon="7.15454">
        <ele>528.1</ele>
        <time>2014-06-05T09:34:50Z</time>
      </trkpt>
      <trkpt lat="47.90232" lon="7.15458">
        <ele>528.3</ele>
        <time>2014-06-05T09:34:54Z</time>
      </trkpt>
      <trkpt lat="47.90222" lon="7.15464">
        <ele>528.6</ele>
        <time>2014-06-05T09:34:58Z</time>
      </trkpt>
      <trkpt lat="47.90213" lon="7.15465">
        <ele>529.1</ele>
        <time>2014-06-05T09:35:03Z</time>
      </trkpt>
      <trkpt lat="47.90195" lon="7.15446">
        <ele>531</ele>
        <time>2014-06-05T09:35:18Z</time>
      </trkpt>
      <trkpt lat="47.90186" lon="7.15441">
        <ele>531.6</ele>
        <time>2014-06-05T09:35:23Z</time>
      </trkpt>
      <trkpt lat="47.90177" lon="7.15439">
        <ele>531.3</ele>
        <time>2014-06-05T09:36:30Z</time>
      </trkpt>
      <trkpt lat="47.9016" lon="7.15449">
        <ele>532</ele>
        <time>2014-06-05T09:36:44Z</time>
      </trkpt>
      <trkpt lat="47.90151" lon="7.15457">
        <ele>532.4</ele>
        <time>2014-06-05T09:36:51Z</time>
      </trkpt>
      <trkpt lat="47.90142" lon="7.15461">
        <ele>532.3</ele>
        <time>2014-06-05T09:37:03Z</time>
      </trkpt>
      <trkpt lat="47.90132" lon="7.15465">
        <ele>533.4</ele>
        <time>2014-06-05T09:37:18Z</time>
      </trkpt>
      <trkpt lat="47.90123" lon="7.15462">
        <ele>534.1</ele>
        <time>2014-06-05T09:37:36Z</time>
      </trkpt>
      <trkpt lat="47.90105" lon="7.15462">
        <ele>529.2</ele>
        <time>2014-06-05T09:38:43Z</time>
      </trkpt>
      <trkpt lat="47.90086" lon="7.15464">
        <ele>530.8</ele>
        <time>2014-06-05T09:39:05Z</time>
      </trkpt>
      <trkpt lat="47.90077" lon="7.15458">
        <ele>531.1</ele>
        <time>2014-06-05T09:39:18Z</time>
      </trkpt>
      <trkpt lat="47.90068" lon="7.15457">
        <ele>530.7</ele>
        <time>2014-06-05T09:39:24Z</time>
      </trkpt>
      <trkpt lat="47.90059" lon="7.15451">
        <ele>529.7</ele>
        <time>2014-06-05T09:39:38Z</time>
      </trkpt>
      <trkpt lat="47.90051" lon="7.15442">
        <ele>530.4</ele>
        <time>2014-06-05T09:39:48Z</time>
      </trkpt>
      <trkpt lat="47.90037" lon="7.15423">
        <ele>531.2</ele>
        <time>2014-06-05T09:39:59Z</time>
      </trkpt>
      <trkpt lat="47.90031" lon="7.15411">
        <ele>530.8</ele>
        <time>2014-06-05T09:40:05Z</time>
      </trkpt>
      <trkpt lat="47.90025" lon="7.15399">
        <ele>531.1</ele>
        <time>2014-06-05T09:40:11Z</time>
      </trkpt>
      <trkpt lat="47.90018" lon="7.15386">
        <ele>531.7</ele>
        <time>2014-06-05T09:40:17Z</time>
      </trkpt>
      <trkpt lat="47.90011" lon="7.15376">
        <ele>532.7</ele>
        <time>2014-06-05T09:40:22Z</time>
      </trkpt>
      <trkpt lat="47.90003" lon="7.15369">
        <ele>533.3</ele>
        <time>2014-06-05T09:40:28Z</time>
      </trkpt>
      <trkpt lat="47.89998" lon="7.15357">
        <ele>534.1</ele>
        <time>2014-06-05T09:40:35Z</time>
      </trkpt>
      <trkpt lat="47.89989" lon="7.15347">
        <ele>534.7</ele>
        <time>2014-06-05T09:40:40Z</time>
      </trkpt>
      <trkpt lat="47.8998" lon="7.15343">
        <ele>535</ele>
        <time>2014-06-05T09:40:42Z</time>
      </trkpt>
      <trkpt lat="47.89971" lon="7.15337">
        <ele>535.6</ele>
        <time>2014-06-05T09:40:47Z</time>
      </trkpt>
      <trkpt lat="47.89962" lon="7.15332">
        <ele>536.5</ele>
        <time>2014-06-05T09:40:54Z</time>
      </trkpt>
      <trkpt lat="47.89947" lon="7.15319">
        <ele>539.3</ele>
        <time>2014-06-05T09:41:15Z</time>
      </trkpt>
      <trkpt lat="47.89939" lon="7.15308">
        <ele>536.5</ele>
        <time>2014-06-05T09:41:46Z</time>
      </trkpt>
      <trkpt lat="47.89931" lon="7.15302">
        <ele>536.1</ele>
        <time>2014-06-05T09:41:52Z</time>
      </trkpt>
      <trkpt lat="47.89922" lon="7.15295">
        <ele>536.1</ele>
        <time>2014-06-05T09:41:57Z</time>
      </trkpt>
      <trkpt lat="47.89934" lon="7.15281">
        <ele>529.9</ele>
        <time>2014-06-05T09:42:18Z</time>
      </trkpt>
      <trkpt lat="47.89925" lon="7.15285">
        <ele>533.1</ele>
        <time>2014-06-05T09:42:23Z</time>
      </trkpt>
      <trkpt lat="47.89916" lon="7.15281">
        <ele>532.5</ele>
        <time>2014-06-05T09:42:29Z</time>
      </trkpt>
      <trkpt lat="47.89908" lon="7.15272">
        <ele>531.9</ele>
        <time>2014-06-05T09:42:36Z</time>
      </trkpt>
      <trkpt lat="47.89899" lon="7.15266">
        <ele>531.5</ele>
        <time>2014-06-05T09:42:41Z</time>
      </trkpt>
      <trkpt lat="47.8989" lon="7.15256">
        <ele>531.7</ele>
        <time>2014-06-05T09:42:45Z</time>
      </trkpt>
      <trkpt lat="47.89882" lon="7.15251">
        <ele>531.9</ele>
        <time>2014-06-05T09:42:49Z</time>
      </trkpt>
      <trkpt lat="47.89871" lon="7.15248">
        <ele>532.3</ele>
        <time>2014-06-05T09:42:55Z</time>
      </trkpt>
      <trkpt lat="47.89861" lon="7.15246">
        <ele>532.7</ele>
        <time>2014-06-05T09:43:00Z</time>
      </trkpt>
      <trkpt lat="47.8984" lon="7.15243">
        <ele>533.7</ele>
        <time>2014-06-05T09:43:11Z</time>
      </trkpt>
      <trkpt lat="47.89831" lon="7.15242">
        <ele>534.4</ele>
        <time>2014-06-05T09:43:15Z</time>
      </trkpt>
      <trkpt lat="47.89822" lon="7.15241">
        <ele>534.4</ele>
        <time>2014-06-05T09:43:18Z</time>
      </trkpt>
      <trkpt lat="47.89812" lon="7.15239">
        <ele>534.9</ele>
        <time>2014-06-05T09:43:25Z</time>
      </trkpt>
      <trkpt lat="47.89803" lon="7.15236">
        <ele>535.3</ele>
        <time>2014-06-05T09:43:31Z</time>
      </trkpt>
      <trkpt lat="47.89794" lon="7.15232">
        <ele>535.8</ele>
        <time>2014-06-05T09:43:36Z</time>
      </trkpt>
      <trkpt lat="47.89785" lon="7.15229">
        <ele>536.6</ele>
        <time>2014-06-05T09:43:43Z</time>
      </trkpt>
      <trkpt lat="47.89776" lon="7.15225">
        <ele>537.4</ele>
        <time>2014-06-05T09:43:50Z</time>
      </trkpt>
      <trkpt lat="47.89766" lon="7.15222">
        <ele>537.8</ele>
        <time>2014-06-05T09:43:54Z</time>
      </trkpt>
      <trkpt lat="47.89757" lon="7.15218">
        <ele>538.3</ele>
        <time>2014-06-05T09:44:00Z</time>
      </trkpt>
      <trkpt lat="47.89748" lon="7.15214">
        <ele>539</ele>
        <time>2014-06-05T09:44:07Z</time>
      </trkpt>
      <trkpt lat="47.89726" lon="7.15206">
        <ele>541</ele>
        <time>2014-06-05T09:44:22Z</time>
      </trkpt>
      <trkpt lat="47.89718" lon="7.15197">
        <ele>541.7</ele>
        <time>2014-06-05T09:44:28Z</time>
      </trkpt>
      <trkpt lat="47.89711" lon="7.15187">
        <ele>543.2</ele>
        <time>2014-06-05T09:44:39Z</time>
      </trkpt>
      <trkpt lat="47.897" lon="7.15181">
        <ele>543.3</ele>
        <time>2014-06-05T09:44:45Z</time>
      </trkpt>
      <trkpt lat="47.89691" lon="7.15176">
        <ele>543.5</ele>
        <time>2014-06-05T09:44:50Z</time>
      </trkpt>
      <trkpt lat="47.89686" lon="7.15163">
        <ele>543.9</ele>
        <time>2014-06-05T09:45:00Z</time>
      </trkpt>
      <trkpt lat="47.8968" lon="7.15151">
        <ele>544</ele>
        <time>2014-06-05T09:45:04Z</time>
      </trkpt>
      <trkpt lat="47.89684" lon="7.15138">
        <ele>544.1</ele>
        <time>2014-06-05T09:45:10Z</time>
      </trkpt>
      <trkpt lat="47.8969" lon="7.15112">
        <ele>544.7</ele>
        <time>2014-06-05T09:45:24Z</time>
      </trkpt>
      <trkpt lat="47.89693" lon="7.15098">
        <ele>545.1</ele>
        <time>2014-06-05T09:45:32Z</time>
      </trkpt>
      <trkpt lat="47.89699" lon="7.15088">
        <ele>545.4</ele>
        <time>2014-06-05T09:45:39Z</time>
      </trkpt>
      <trkpt lat="47.89707" lon="7.15081">
        <ele>545.8</ele>
        <time>2014-06-05T09:45:46Z</time>
      </trkpt>
      <trkpt lat="47.89715" lon="7.15075">
        <ele>546.4</ele>
        <time>2014-06-05T09:45:52Z</time>
      </trkpt>
      <trkpt lat="47.89722" lon="7.15065">
        <ele>546.9</ele>
        <time>2014-06-05T09:45:59Z</time>
      </trkpt>
      <trkpt lat="47.8973" lon="7.15056">
        <ele>547.2</ele>
        <time>2014-06-05T09:46:06Z</time>
      </trkpt>
      <trkpt lat="47.8974" lon="7.15055">
        <ele>547.5</ele>
        <time>2014-06-05T09:46:13Z</time>
      </trkpt>
      <trkpt lat="47.8976" lon="7.15042">
        <ele>549</ele>
        <time>2014-06-05T09:46:28Z</time>
      </trkpt>
      <trkpt lat="47.89769" lon="7.15038">
        <ele>549.7</ele>
        <time>2014-06-05T09:46:34Z</time>
      </trkpt>
      <trkpt lat="47.89776" lon="7.15031">
        <ele>550.2</ele>
        <time>2014-06-05T09:46:39Z</time>
      </trkpt>
      <trkpt lat="47.89779" lon="7.15018">
        <ele>550.9</ele>
        <time>2014-06-05T09:46:45Z</time>
      </trkpt>
      <trkpt lat="47.89775" lon="7.15004">
        <ele>551.2</ele>
        <time>2014-06-05T09:46:51Z</time>
      </trkpt>
      <trkpt lat="47.89771" lon="7.1499">
        <ele>551.3</ele>
        <time>2014-06-05T09:46:58Z</time>
      </trkpt>
      <trkpt lat="47.8977" lon="7.14976">
        <ele>551.7</ele>
        <time>2014-06-05T09:47:04Z</time>
      </trkpt>
      <trkpt lat="47.89764" lon="7.14964">
        <ele>552.1</ele>
        <time>2014-06-05T09:47:10Z</time>
      </trkpt>
      <trkpt lat="47.8976" lon="7.14951">
        <ele>552.5</ele>
        <time>2014-06-05T09:47:17Z</time>
      </trkpt>
      <trkpt lat="47.89749" lon="7.14927">
        <ele>553.2</ele>
        <time>2014-06-05T09:47:31Z</time>
      </trkpt>
      <trkpt lat="47.89743" lon="7.14915">
        <ele>553.7</ele>
        <time>2014-06-05T09:47:38Z</time>
      </trkpt>
      <trkpt lat="47.89737" lon="7.14905">
        <ele>554.1</ele>
        <time>2014-06-05T09:47:45Z</time>
      </trkpt>
      <trkpt lat="47.89731" lon="7.14894">
        <ele>554.8</ele>
        <time>2014-06-05T09:47:53Z</time>
      </trkpt>
      <trkpt lat="47.89724" lon="7.14886">
        <ele>555.4</ele>
        <time>2014-06-05T09:48:00Z</time>
      </trkpt>
      <trkpt lat="47.89715" lon="7.14878">
        <ele>555.6</ele>
        <time>2014-06-05T09:48:05Z</time>
      </trkpt>
      <trkpt lat="47.89706" lon="7.14871">
        <ele>556.4</ele>
        <time>2014-06-05T09:48:12Z</time>
      </trkpt>
      <trkpt lat="47.89697" lon="7.14864">
        <ele>557</ele>
        <time>2014-06-05T09:48:18Z</time>
      </trkpt>
      <trkpt lat="47.89679" lon="7.14854">
        <ele>557.6</ele>
        <time>2014-06-05T09:48:27Z</time>
      </trkpt>
      <trkpt lat="47.8967" lon="7.14846">
        <ele>557.8</ele>
        <time>2014-06-05T09:48:33Z</time>
      </trkpt>
      <trkpt lat="47.89662" lon="7.14856">
        <ele>558.3</ele>
        <time>2014-06-05T09:48:43Z</time>
      </trkpt>
      <trkpt lat="47.89672" lon="7.14856">
        <ele>557</ele>
        <time>2014-06-05T09:49:02Z</time>
      </trkpt>
      <trkpt lat="47.8968" lon="7.1485">
        <ele>556</ele>
        <time>2014-06-05T09:49:10Z</time>
      </trkpt>
      <trkpt lat="47.8969" lon="7.14847">
        <ele>555.2</ele>
        <time>2014-06-05T09:49:16Z</time>
      </trkpt>
      <trkpt lat="47.89681" lon="7.14852">
        <ele>553.2</ele>
        <time>2014-06-05T09:49:31Z</time>
      </trkpt>
      <trkpt lat="47.89676" lon="7.14879">
        <ele>549.5</ele>
        <time>2014-06-05T09:50:15Z</time>
      </trkpt>
      <trkpt lat="47.89677" lon="7.14895">
        <ele>549.8</ele>
        <time>2014-06-05T09:50:21Z</time>
      </trkpt>
      <trkpt lat="47.89675" lon="7.1491">
        <ele>550.1</ele>
        <time>2014-06-05T09:50:27Z</time>
      </trkpt>
      <trkpt lat="47.89669" lon="7.14924">
        <ele>550.8</ele>
        <time>2014-06-05T09:50:32Z</time>
      </trkpt>
      <trkpt lat="47.89658" lon="7.14949">
        <ele>551.2</ele>
        <time>2014-06-05T09:50:44Z</time>
      </trkpt>
      <trkpt lat="47.89653" lon="7.14961">
        <ele>551.6</ele>
        <time>2014-06-05T09:50:49Z</time>
      </trkpt>
      <trkpt lat="47.89647" lon="7.14972">
        <ele>552.1</ele>
        <time>2014-06-05T09:50:54Z</time>
      </trkpt>
      <trkpt lat="47.89638" lon="7.14978">
        <ele>552.4</ele>
        <time>2014-06-05T09:51:00Z</time>
      </trkpt>
      <trkpt lat="47.8963" lon="7.14986">
        <ele>552.7</ele>
        <time>2014-06-05T09:51:05Z</time>
      </trkpt>
      <trkpt lat="47.89623" lon="7.14997">
        <ele>553.1</ele>
        <time>2014-06-05T09:51:11Z</time>
      </trkpt>
      <trkpt lat="47.89616" lon="7.15006">
        <ele>553.9</ele>
        <time>2014-06-05T09:51:18Z</time>
      </trkpt>
      <trkpt lat="47.89606" lon="7.15004">
        <ele>554.8</ele>
        <time>2014-06-05T09:51:25Z</time>
      </trkpt>
      <trkpt lat="47.89599" lon="7.14994">
        <ele>555.4</ele>
        <time>2014-06-05T09:51:30Z</time>
      </trkpt>
      <trkpt lat="47.896" lon="7.14981">
        <ele>555.5</ele>
        <time>2014-06-05T09:51:35Z</time>
      </trkpt>
      <trkpt lat="47.89606" lon="7.14954">
        <ele>556.9</ele>
        <time>2014-06-05T09:51:49Z</time>
      </trkpt>
      <trkpt lat="47.89608" lon="7.14941">
        <ele>557.3</ele>
        <time>2014-06-05T09:51:55Z</time>
      </trkpt>
      <trkpt lat="47.89606" lon="7.14926">
        <ele>557.6</ele>
        <time>2014-06-05T09:52:01Z</time>
      </trkpt>
      <trkpt lat="47.896" lon="7.14914">
        <ele>558.3</ele>
        <time>2014-06-05T09:52:09Z</time>
      </trkpt>
      <trkpt lat="47.89593" lon="7.14904">
        <ele>558.5</ele>
        <time>2014-06-05T09:52:19Z</time>
      </trkpt>
      <trkpt lat="47.89586" lon="7.14895">
        <ele>558.7</ele>
        <time>2014-06-05T09:52:25Z</time>
      </trkpt>
      <trkpt lat="47.89578" lon="7.14886">
        <ele>558.8</ele>
        <time>2014-06-05T09:52:30Z</time>
      </trkpt>
      <trkpt lat="47.8957" lon="7.1488">
        <ele>558.9</ele>
        <time>2014-06-05T09:52:37Z</time>
      </trkpt>
      <trkpt lat="47.89551" lon="7.1487">
        <ele>559.3</ele>
        <time>2014-06-05T09:52:47Z</time>
      </trkpt>
      <trkpt lat="47.89543" lon="7.14863">
        <ele>559.7</ele>
        <time>2014-06-05T09:52:55Z</time>
      </trkpt>
      <trkpt lat="47.89533" lon="7.14857">
        <ele>559.8</ele>
        <time>2014-06-05T09:53:02Z</time>
      </trkpt>
      <trkpt lat="47.89525" lon="7.1485">
        <ele>560.2</ele>
        <time>2014-06-05T09:53:08Z</time>
      </trkpt>
      <trkpt lat="47.89516" lon="7.14844">
        <ele>560.6</ele>
        <time>2014-06-05T09:53:15Z</time>
      </trkpt>
      <trkpt lat="47.89509" lon="7.14836">
        <ele>561.1</ele>
        <time>2014-06-05T09:53:23Z</time>
      </trkpt>
      <trkpt lat="47.89501" lon="7.14827">
        <ele>561.6</ele>
        <time>2014-06-05T09:53:30Z</time>
      </trkpt>
      <trkpt lat="47.89493" lon="7.1482">
        <ele>562.2</ele>
        <time>2014-06-05T09:53:36Z</time>
      </trkpt>
      <trkpt lat="47.89483" lon="7.14817">
        <ele>562.8</ele>
        <time>2014-06-05T09:53:42Z</time>
      </trkpt>
      <trkpt lat="47.89466" lon="7.14804">
        <ele>564.2</ele>
        <time>2014-06-05T09:53:58Z</time>
      </trkpt>
      <trkpt lat="47.89458" lon="7.14796">
        <ele>564.6</ele>
        <time>2014-06-05T09:54:06Z</time>
      </trkpt>
      <trkpt lat="47.89449" lon="7.1479">
        <ele>564.8</ele>
        <time>2014-06-05T09:54:14Z</time>
      </trkpt>
      <trkpt lat="47.8944" lon="7.14784">
        <ele>565.2</ele>
        <time>2014-06-05T09:54:22Z</time>
      </trkpt>
      <trkpt lat="47.89431" lon="7.14777">
        <ele>565.7</ele>
        <time>2014-06-05T09:54:26Z</time>
      </trkpt>
      <trkpt lat="47.89422" lon="7.1477">
        <ele>566.2</ele>
        <time>2014-06-05T09:54:34Z</time>
      </trkpt>
      <trkpt lat="47.89411" lon="7.14766">
        <ele>566.8</ele>
        <time>2014-06-05T09:54:43Z</time>
      </trkpt>
      <trkpt lat="47.89391" lon="7.14759">
        <ele>567.8</ele>
        <time>2014-06-05T09:54:58Z</time>
      </trkpt>
      <trkpt lat="47.89381" lon="7.1476">
        <ele>568.3</ele>
        <time>2014-06-05T09:55:04Z</time>
      </trkpt>
      <trkpt lat="47.89371" lon="7.14759">
        <ele>568.7</ele>
        <time>2014-06-05T09:55:12Z</time>
      </trkpt>
      <trkpt lat="47.89361" lon="7.14758">
        <ele>569.3</ele>
        <time>2014-06-05T09:55:22Z</time>
      </trkpt>
      <trkpt lat="47.89351" lon="7.14759">
        <ele>569.7</ele>
        <time>2014-06-05T09:55:31Z</time>
      </trkpt>
      <trkpt lat="47.89341" lon="7.1476">
        <ele>570.6</ele>
        <time>2014-06-05T09:55:40Z</time>
      </trkpt>
      <trkpt lat="47.89332" lon="7.14759">
        <ele>568.8</ele>
        <time>2014-06-05T09:56:06Z</time>
      </trkpt>
      <trkpt lat="47.89329" lon="7.14763">
        <ele>563.2</ele>
        <time>2014-06-05T09:56:40Z</time>
      </trkpt>
      <trkpt lat="47.89339" lon="7.14773">
        <ele>561</ele>
        <time>2014-06-05T09:56:54Z</time>
      </trkpt>
      <trkpt lat="47.89349" lon="7.14783">
        <ele>560.8</ele>
        <time>2014-06-05T09:56:58Z</time>
      </trkpt>
      <trkpt lat="47.89345" lon="7.1477">
        <ele>559.7</ele>
        <time>2014-06-05T09:57:06Z</time>
      </trkpt>
      <trkpt lat="47.89353" lon="7.14778">
        <ele>558.2</ele>
        <time>2014-06-05T09:57:14Z</time>
      </trkpt>
      <trkpt lat="47.89342" lon="7.14767">
        <ele>555.2</ele>
        <time>2014-06-05T09:57:47Z</time>
      </trkpt>
      <trkpt lat="47.89334" lon="7.14774">
        <ele>555.1</ele>
        <time>2014-06-05T09:58:37Z</time>
      </trkpt>
      <trkpt lat="47.8929" lon="7.14765">
        <ele>558.3</ele>
        <time>2014-06-05T09:58:56Z</time>
      </trkpt>
      <trkpt lat="47.8928" lon="7.14766">
        <ele>559.7</ele>
        <time>2014-06-05T09:59:03Z</time>
      </trkpt>
      <trkpt lat="47.89271" lon="7.14772">
        <ele>561.8</ele>
        <time>2014-06-05T09:59:13Z</time>
      </trkpt>
      <trkpt lat="47.89263" lon="7.1478">
        <ele>563.6</ele>
        <time>2014-06-05T09:59:24Z</time>
      </trkpt>
      <trkpt lat="47.89252" lon="7.14781">
        <ele>564.9</ele>
        <time>2014-06-05T09:59:31Z</time>
      </trkpt>
      <trkpt lat="47.89243" lon="7.14782">
        <ele>565.9</ele>
        <time>2014-06-05T09:59:37Z</time>
      </trkpt>
      <trkpt lat="47.89231" lon="7.14783">
        <ele>568</ele>
        <time>2014-06-05T09:59:47Z</time>
      </trkpt>
      <trkpt lat="47.89208" lon="7.14755">
        <ele>569.8</ele>
        <time>2014-06-05T10:00:06Z</time>
      </trkpt>
      <trkpt lat="47.89199" lon="7.1475">
        <ele>570.4</ele>
        <time>2014-06-05T10:00:58Z</time>
      </trkpt>
      <trkpt lat="47.89194" lon="7.14727">
        <ele>575.3</ele>
        <time>2014-06-05T10:01:20Z</time>
      </trkpt>
      <trkpt lat="47.89193" lon="7.14713">
        <ele>577.9</ele>
        <time>2014-06-05T10:01:34Z</time>
      </trkpt>
      <trkpt lat="47.89191" lon="7.147">
        <ele>580</ele>
        <time>2014-06-05T10:01:46Z</time>
      </trkpt>
      <trkpt lat="47.89184" lon="7.1469">
        <ele>582.3</ele>
        <time>2014-06-05T10:01:57Z</time>
      </trkpt>
      <trkpt lat="47.89176" lon="7.14685">
        <ele>584.3</ele>
        <time>2014-06-05T10:02:08Z</time>
      </trkpt>
      <trkpt lat="47.89161" lon="7.14667">
        <ele>588.4</ele>
        <time>2014-06-05T10:02:31Z</time>
      </trkpt>
      <trkpt lat="47.89153" lon="7.14662">
        <ele>590.4</ele>
        <time>2014-06-05T10:02:42Z</time>
      </trkpt>
      <trkpt lat="47.89145" lon="7.14654">
        <ele>592</ele>
        <time>2014-06-05T10:02:51Z</time>
      </trkpt>
      <trkpt lat="47.89137" lon="7.1465">
        <ele>593.7</ele>
        <time>2014-06-05T10:03:01Z</time>
      </trkpt>
      <trkpt lat="47.89128" lon="7.14646">
        <ele>595</ele>
        <time>2014-06-05T10:03:10Z</time>
      </trkpt>
      <trkpt lat="47.89112" lon="7.1463">
        <ele>598.6</ele>
        <time>2014-06-05T10:03:36Z</time>
      </trkpt>
      <trkpt lat="47.89107" lon="7.14618">
        <ele>599.8</ele>
        <time>2014-06-05T10:03:46Z</time>
      </trkpt>
      <trkpt lat="47.89098" lon="7.14612">
        <ele>601.9</ele>
        <time>2014-06-05T10:04:00Z</time>
      </trkpt>
      <trkpt lat="47.8909" lon="7.14604">
        <ele>604.6</ele>
        <time>2014-06-05T10:04:17Z</time>
      </trkpt>
      <trkpt lat="47.89071" lon="7.14599">
        <ele>609.6</ele>
        <time>2014-06-05T10:04:51Z</time>
      </trkpt>
      <trkpt lat="47.89061" lon="7.14597">
        <ele>611.4</ele>
        <time>2014-06-05T10:05:01Z</time>
      </trkpt>
      <trkpt lat="47.89051" lon="7.14589">
        <ele>614.2</ele>
        <time>2014-06-05T10:05:21Z</time>
      </trkpt>
      <trkpt lat="47.89033" lon="7.1458">
        <ele>616.2</ele>
        <time>2014-06-05T10:05:38Z</time>
      </trkpt>
      <trkpt lat="47.89024" lon="7.1458">
        <ele>617.5</ele>
        <time>2014-06-05T10:05:48Z</time>
      </trkpt>
      <trkpt lat="47.89014" lon="7.14578">
        <ele>620.3</ele>
        <time>2014-06-05T10:06:06Z</time>
      </trkpt>
      <trkpt lat="47.89006" lon="7.14573">
        <ele>622.5</ele>
        <time>2014-06-05T10:06:18Z</time>
      </trkpt>
      <trkpt lat="47.88999" lon="7.14563">
        <ele>625.8</ele>
        <time>2014-06-05T10:06:32Z</time>
      </trkpt>
      <trkpt lat="47.89004" lon="7.14534">
        <ele>630</ele>
        <time>2014-06-05T10:06:57Z</time>
      </trkpt>
      <trkpt lat="47.89001" lon="7.14521">
        <ele>631.4</ele>
        <time>2014-06-05T10:07:05Z</time>
      </trkpt>
      <trkpt lat="47.89001" lon="7.14508">
        <ele>631.8</ele>
        <time>2014-06-05T10:07:13Z</time>
      </trkpt>
      <trkpt lat="47.89" lon="7.14493">
        <ele>633.4</ele>
        <time>2014-06-05T10:07:24Z</time>
      </trkpt>
      <trkpt lat="47.89003" lon="7.1448">
        <ele>635.4</ele>
        <time>2014-06-05T10:07:37Z</time>
      </trkpt>
      <trkpt lat="47.89007" lon="7.14453">
        <ele>641.1</ele>
        <time>2014-06-05T10:08:15Z</time>
      </trkpt>
      <trkpt lat="47.89005" lon="7.1444">
        <ele>642.6</ele>
        <time>2014-06-05T10:08:28Z</time>
      </trkpt>
      <trkpt lat="47.88999" lon="7.14429">
        <ele>643.6</ele>
        <time>2014-06-05T10:08:38Z</time>
      </trkpt>
      <trkpt lat="47.88995" lon="7.14415">
        <ele>646.5</ele>
        <time>2014-06-05T10:08:59Z</time>
      </trkpt>
      <trkpt lat="47.88982" lon="7.14395">
        <ele>650.9</ele>
        <time>2014-06-05T10:09:27Z</time>
      </trkpt>
      <trkpt lat="47.88979" lon="7.14381">
        <ele>652.1</ele>
        <time>2014-06-05T10:09:35Z</time>
      </trkpt>
      <trkpt lat="47.88974" lon="7.14369">
        <ele>653.3</ele>
        <time>2014-06-05T10:09:42Z</time>
      </trkpt>
      <trkpt lat="47.88969" lon="7.14358">
        <ele>654.4</ele>
        <time>2014-06-05T10:09:51Z</time>
      </trkpt>
      <trkpt lat="47.88963" lon="7.14347">
        <ele>655.6</ele>
        <time>2014-06-05T10:09:58Z</time>
      </trkpt>
      <trkpt lat="47.88956" lon="7.14335">
        <ele>656.5</ele>
        <time>2014-06-05T10:10:06Z</time>
      </trkpt>
      <trkpt lat="47.88945" lon="7.14313">
        <ele>659.2</ele>
        <time>2014-06-05T10:10:22Z</time>
      </trkpt>
      <trkpt lat="47.88938" lon="7.14302">
        <ele>661.3</ele>
        <time>2014-06-05T10:10:34Z</time>
      </trkpt>
      <trkpt lat="47.88932" lon="7.1429">
        <ele>663.1</ele>
        <time>2014-06-05T10:10:43Z</time>
      </trkpt>
      <trkpt lat="47.88929" lon="7.14277">
        <ele>665.4</ele>
        <time>2014-06-05T10:10:51Z</time>
      </trkpt>
      <trkpt lat="47.8893" lon="7.14263">
        <ele>668.7</ele>
        <time>2014-06-05T10:11:04Z</time>
      </trkpt>
      <trkpt lat="47.88925" lon="7.14251">
        <ele>671.3</ele>
        <time>2014-06-05T10:11:14Z</time>
      </trkpt>
      <trkpt lat="47.88926" lon="7.14223">
        <ele>676.1</ele>
        <time>2014-06-05T10:11:33Z</time>
      </trkpt>
      <trkpt lat="47.88923" lon="7.14209">
        <ele>679.3</ele>
        <time>2014-06-05T10:11:45Z</time>
      </trkpt>
      <trkpt lat="47.88918" lon="7.14197">
        <ele>682.4</ele>
        <time>2014-06-05T10:11:56Z</time>
      </trkpt>
      <trkpt lat="47.88915" lon="7.14184">
        <ele>685.5</ele>
        <time>2014-06-05T10:12:08Z</time>
      </trkpt>
      <trkpt lat="47.88914" lon="7.14169">
        <ele>688.2</ele>
        <time>2014-06-05T10:12:18Z</time>
      </trkpt>
      <trkpt lat="47.88906" lon="7.14145">
        <ele>693.9</ele>
        <time>2014-06-05T10:12:41Z</time>
      </trkpt>
      <trkpt lat="47.88902" lon="7.14133">
        <ele>695.8</ele>
        <time>2014-06-05T10:12:49Z</time>
      </trkpt>
      <trkpt lat="47.88899" lon="7.1412">
        <ele>698.7</ele>
        <time>2014-06-05T10:13:01Z</time>
      </trkpt>
      <trkpt lat="47.88895" lon="7.14108">
        <ele>701.3</ele>
        <time>2014-06-05T10:13:13Z</time>
      </trkpt>
      <trkpt lat="47.88893" lon="7.14094">
        <ele>704.5</ele>
        <time>2014-06-05T10:13:25Z</time>
      </trkpt>
      <trkpt lat="47.88897" lon="7.14067">
        <ele>710.4</ele>
        <time>2014-06-05T10:13:50Z</time>
      </trkpt>
      <trkpt lat="47.88894" lon="7.14054">
        <ele>713.5</ele>
        <time>2014-06-05T10:14:01Z</time>
      </trkpt>
      <trkpt lat="47.88896" lon="7.14041">
        <ele>717.3</ele>
        <time>2014-06-05T10:14:16Z</time>
      </trkpt>
      <trkpt lat="47.88889" lon="7.14027">
        <ele>719.4</ele>
        <time>2014-06-05T10:14:24Z</time>
      </trkpt>
      <trkpt lat="47.88887" lon="7.14013">
        <ele>721.7</ele>
        <time>2014-06-05T10:14:33Z</time>
      </trkpt>
      <trkpt lat="47.88883" lon="7.13985">
        <ele>727.2</ele>
        <time>2014-06-05T10:14:59Z</time>
      </trkpt>
      <trkpt lat="47.88886" lon="7.13972">
        <ele>730.1</ele>
        <time>2014-06-05T10:15:15Z</time>
      </trkpt>
      <trkpt lat="47.88888" lon="7.13958">
        <ele>760.8</ele>
        <time>2014-06-05T10:19:12Z</time>
      </trkpt>
      <trkpt lat="47.88903" lon="7.13937">
        <ele>764.2</ele>
        <time>2014-06-05T10:19:30Z</time>
      </trkpt>
      <trkpt lat="47.88911" lon="7.13927">
        <ele>766.9</ele>
        <time>2014-06-05T10:19:37Z</time>
      </trkpt>
      <trkpt lat="47.88916" lon="7.13916">
        <ele>770.1</ele>
        <time>2014-06-05T10:19:46Z</time>
      </trkpt>
      <trkpt lat="47.88912" lon="7.13903">
        <ele>775.7</ele>
        <time>2014-06-05T10:20:04Z</time>
      </trkpt>
      <trkpt lat="47.88916" lon="7.13889">
        <ele>778.5</ele>
        <time>2014-06-05T10:20:12Z</time>
      </trkpt>
      <trkpt lat="47.88915" lon="7.13874">
        <ele>780.4</ele>
        <time>2014-06-05T10:20:21Z</time>
      </trkpt>
      <trkpt lat="47.88918" lon="7.13847">
        <ele>783</ele>
        <time>2014-06-05T10:20:36Z</time>
      </trkpt>
      <trkpt lat="47.8892" lon="7.13831">
        <ele>784.3</ele>
        <time>2014-06-05T10:20:43Z</time>
      </trkpt>
      <trkpt lat="47.88918" lon="7.13817">
        <ele>785.6</ele>
        <time>2014-06-05T10:20:50Z</time>
      </trkpt>
      <trkpt lat="47.88916" lon="7.13803">
        <ele>787.4</ele>
        <time>2014-06-05T10:20:57Z</time>
      </trkpt>
      <trkpt lat="47.88917" lon="7.13789">
        <ele>790</ele>
        <time>2014-06-05T10:21:04Z</time>
      </trkpt>
      <trkpt lat="47.88918" lon="7.13775">
        <ele>791.9</ele>
        <time>2014-06-05T10:21:10Z</time>
      </trkpt>
      <trkpt lat="47.88918" lon="7.13761">
        <ele>792.7</ele>
        <time>2014-06-05T10:21:15Z</time>
      </trkpt>
      <trkpt lat="47.88918" lon="7.13748">
        <ele>794.4</ele>
        <time>2014-06-05T10:21:21Z</time>
      </trkpt>
      <trkpt lat="47.88919" lon="7.13733">
        <ele>796.6</ele>
        <time>2014-06-05T10:21:29Z</time>
      </trkpt>
      <trkpt lat="47.88927" lon="7.13707">
        <ele>799.8</ele>
        <time>2014-06-05T10:21:38Z</time>
      </trkpt>
      <trkpt lat="47.88932" lon="7.13693">
        <ele>801.7</ele>
        <time>2014-06-05T10:21:46Z</time>
      </trkpt>
      <trkpt lat="47.88938" lon="7.13681">
        <ele>803.6</ele>
        <time>2014-06-05T10:21:53Z</time>
      </trkpt>
      <trkpt lat="47.88942" lon="7.13668">
        <ele>805</ele>
        <time>2014-06-05T10:22:01Z</time>
      </trkpt>
      <trkpt lat="47.88947" lon="7.13655">
        <ele>807.2</ele>
        <time>2014-06-05T10:22:08Z</time>
      </trkpt>
      <trkpt lat="47.88954" lon="7.13643">
        <ele>808.7</ele>
        <time>2014-06-05T10:22:14Z</time>
      </trkpt>
      <trkpt lat="47.88961" lon="7.13632">
        <ele>810</ele>
        <time>2014-06-05T10:22:19Z</time>
      </trkpt>
      <trkpt lat="47.88968" lon="7.13622">
        <ele>811.9</ele>
        <time>2014-06-05T10:22:24Z</time>
      </trkpt>
      <trkpt lat="47.88977" lon="7.13609">
        <ele>812.4</ele>
        <time>2014-06-05T10:22:27Z</time>
      </trkpt>
      <trkpt lat="47.88988" lon="7.13599">
        <ele>812.9</ele>
        <time>2014-06-05T10:22:29Z</time>
      </trkpt>
      <trkpt lat="47.88993" lon="7.13584">
        <ele>813.4</ele>
        <time>2014-06-05T10:22:32Z</time>
      </trkpt>
      <trkpt lat="47.88981" lon="7.13555">
        <ele>815</ele>
        <time>2014-06-05T10:22:53Z</time>
      </trkpt>
      <trkpt lat="47.88975" lon="7.13546">
        <ele>815.1</ele>
        <time>2014-06-05T10:22:56Z</time>
      </trkpt>
      <trkpt lat="47.88968" lon="7.13534">
        <ele>815.3</ele>
        <time>2014-06-05T10:23:00Z</time>
      </trkpt>
      <trkpt lat="47.88962" lon="7.13522">
        <ele>815.8</ele>
        <time>2014-06-05T10:23:07Z</time>
      </trkpt>
      <trkpt lat="47.88954" lon="7.13514">
        <ele>821</ele>
        <time>2014-06-05T10:24:07Z</time>
      </trkpt>
      <trkpt lat="47.88934" lon="7.13502">
        <ele>821.1</ele>
        <time>2014-06-05T10:24:13Z</time>
      </trkpt>
      <trkpt lat="47.88921" lon="7.13492">
        <ele>822.3</ele>
        <time>2014-06-05T10:24:27Z</time>
      </trkpt>
      <trkpt lat="47.88916" lon="7.1348">
        <ele>822.6</ele>
        <time>2014-06-05T10:24:30Z</time>
      </trkpt>
      <trkpt lat="47.88908" lon="7.13469">
        <ele>822.7</ele>
        <time>2014-06-05T10:24:33Z</time>
      </trkpt>
      <trkpt lat="47.88899" lon="7.13455">
        <ele>822.4</ele>
        <time>2014-06-05T10:24:36Z</time>
      </trkpt>
      <trkpt lat="47.88892" lon="7.13444">
        <ele>822.5</ele>
        <time>2014-06-05T10:24:38Z</time>
      </trkpt>
      <trkpt lat="47.88884" lon="7.13433">
        <ele>822.5</ele>
        <time>2014-06-05T10:24:40Z</time>
      </trkpt>
      <trkpt lat="47.88875" lon="7.13419">
        <ele>822.5</ele>
        <time>2014-06-05T10:24:42Z</time>
      </trkpt>
      <trkpt lat="47.88867" lon="7.1341">
        <ele>822.5</ele>
        <time>2014-06-05T10:24:43Z</time>
      </trkpt>
      <trkpt lat="47.88857" lon="7.13397">
        <ele>822.4</ele>
        <time>2014-06-05T10:24:45Z</time>
      </trkpt>
      <trkpt lat="47.88847" lon="7.13382">
        <ele>822.3</ele>
        <time>2014-06-05T10:24:47Z</time>
      </trkpt>
      <trkpt lat="47.88839" lon="7.13368">
        <ele>822.5</ele>
        <time>2014-06-05T10:24:49Z</time>
      </trkpt>
      <trkpt lat="47.88832" lon="7.13356">
        <ele>822.6</ele>
        <time>2014-06-05T10:24:51Z</time>
      </trkpt>
      <trkpt lat="47.88825" lon="7.13342">
        <ele>822.3</ele>
        <time>2014-06-05T10:24:53Z</time>
      </trkpt>
      <trkpt lat="47.88818" lon="7.1333">
        <ele>822.5</ele>
        <time>2014-06-05T10:24:55Z</time>
      </trkpt>
      <trkpt lat="47.88812" lon="7.13319">
        <ele>822.3</ele>
        <time>2014-06-05T10:24:57Z</time>
      </trkpt>
      <trkpt lat="47.88805" lon="7.13307">
        <ele>822.1</ele>
        <time>2014-06-05T10:24:59Z</time>
      </trkpt>
      <trkpt lat="47.88798" lon="7.13293">
        <ele>821.8</ele>
        <time>2014-06-05T10:25:01Z</time>
      </trkpt>
      <trkpt lat="47.88792" lon="7.13282">
        <ele>821.8</ele>
        <time>2014-06-05T10:25:03Z</time>
      </trkpt>
      <trkpt lat="47.88785" lon="7.13266">
        <ele>821.7</ele>
        <time>2014-06-05T10:25:06Z</time>
      </trkpt>
      <trkpt lat="47.88783" lon="7.13252">
        <ele>821.8</ele>
        <time>2014-06-05T10:25:09Z</time>
      </trkpt>
      <trkpt lat="47.88776" lon="7.1322">
        <ele>821.4</ele>
        <time>2014-06-05T10:25:16Z</time>
      </trkpt>
      <trkpt lat="47.88773" lon="7.13203">
        <ele>821.5</ele>
        <time>2014-06-05T10:25:18Z</time>
      </trkpt>
      <trkpt lat="47.8877" lon="7.13189">
        <ele>826</ele>
        <time>2014-06-05T10:26:09Z</time>
      </trkpt>
      <trkpt lat="47.88771" lon="7.13176">
        <ele>826.7</ele>
        <time>2014-06-05T10:26:12Z</time>
      </trkpt>
      <trkpt lat="47.88785" lon="7.13152">
        <ele>830.2</ele>
        <time>2014-06-05T10:26:23Z</time>
      </trkpt>
      <trkpt lat="47.88792" lon="7.13139">
        <ele>832.1</ele>
        <time>2014-06-05T10:26:28Z</time>
      </trkpt>
      <trkpt lat="47.88797" lon="7.13126">
        <ele>833.9</ele>
        <time>2014-06-05T10:26:32Z</time>
      </trkpt>
      <trkpt lat="47.88801" lon="7.13113">
        <ele>835.8</ele>
        <time>2014-06-05T10:26:37Z</time>
      </trkpt>
      <trkpt lat="47.88804" lon="7.13098">
        <ele>838</ele>
        <time>2014-06-05T10:26:43Z</time>
      </trkpt>
      <trkpt lat="47.88806" lon="7.13083">
        <ele>839.9</ele>
        <time>2014-06-05T10:26:49Z</time>
      </trkpt>
      <trkpt lat="47.88806" lon="7.13067">
        <ele>840.5</ele>
        <time>2014-06-05T10:26:54Z</time>
      </trkpt>
      <trkpt lat="47.88805" lon="7.13053">
        <ele>842.1</ele>
        <time>2014-06-05T10:27:00Z</time>
      </trkpt>
      <trkpt lat="47.88805" lon="7.13039">
        <ele>843.2</ele>
        <time>2014-06-05T10:27:07Z</time>
      </trkpt>
      <trkpt lat="47.88802" lon="7.13025">
        <ele>843.9</ele>
        <time>2014-06-05T10:27:11Z</time>
      </trkpt>
      <trkpt lat="47.88798" lon="7.13011">
        <ele>844.5</ele>
        <time>2014-06-05T10:27:14Z</time>
      </trkpt>
      <trkpt lat="47.88788" lon="7.12985">
        <ele>845.9</ele>
        <time>2014-06-05T10:27:21Z</time>
      </trkpt>
      <trkpt lat="47.88783" lon="7.12971">
        <ele>846.7</ele>
        <time>2014-06-05T10:27:25Z</time>
      </trkpt>
      <trkpt lat="47.88779" lon="7.12956">
        <ele>847.3</ele>
        <time>2014-06-05T10:27:31Z</time>
      </trkpt>
      <trkpt lat="47.88774" lon="7.12941">
        <ele>848.3</ele>
        <time>2014-06-05T10:27:36Z</time>
      </trkpt>
      <trkpt lat="47.88769" lon="7.12925">
        <ele>849.5</ele>
        <time>2014-06-05T10:27:41Z</time>
      </trkpt>
      <trkpt lat="47.88763" lon="7.12915">
        <ele>850.1</ele>
        <time>2014-06-05T10:27:44Z</time>
      </trkpt>
      <trkpt lat="47.88756" lon="7.12903">
        <ele>851.4</ele>
        <time>2014-06-05T10:27:48Z</time>
      </trkpt>
      <trkpt lat="47.88747" lon="7.1289">
        <ele>853.1</ele>
        <time>2014-06-05T10:27:53Z</time>
      </trkpt>
      <trkpt lat="47.88739" lon="7.12882">
        <ele>853.3</ele>
        <time>2014-06-05T10:27:54Z</time>
      </trkpt>
      <trkpt lat="47.88731" lon="7.12871">
        <ele>854.2</ele>
        <time>2014-06-05T10:27:57Z</time>
      </trkpt>
      <trkpt lat="47.88724" lon="7.1286">
        <ele>855.2</ele>
        <time>2014-06-05T10:28:00Z</time>
      </trkpt>
      <trkpt lat="47.88719" lon="7.12849">
        <ele>856.4</ele>
        <time>2014-06-05T10:28:04Z</time>
      </trkpt>
      <trkpt lat="47.88711" lon="7.12838">
        <ele>857.7</ele>
        <time>2014-06-05T10:28:09Z</time>
      </trkpt>
      <trkpt lat="47.88704" lon="7.12829">
        <ele>858.6</ele>
        <time>2014-06-05T10:28:13Z</time>
      </trkpt>
      <trkpt lat="47.88696" lon="7.12822">
        <ele>859.8</ele>
        <time>2014-06-05T10:28:19Z</time>
      </trkpt>
      <trkpt lat="47.88679" lon="7.1281">
        <ele>861.6</ele>
        <time>2014-06-05T10:28:29Z</time>
      </trkpt>
      <trkpt lat="47.88669" lon="7.12803">
        <ele>887.8</ele>
        <time>2014-06-05T10:32:33Z</time>
      </trkpt>
      <trkpt lat="47.88654" lon="7.12818">
        <ele>889.3</ele>
        <time>2014-06-05T10:32:43Z</time>
      </trkpt>
      <trkpt lat="47.88646" lon="7.12827">
        <ele>889.4</ele>
        <time>2014-06-05T10:32:47Z</time>
      </trkpt>
      <trkpt lat="47.88638" lon="7.12837">
        <ele>889.3</ele>
        <time>2014-06-05T10:32:51Z</time>
      </trkpt>
      <trkpt lat="47.88628" lon="7.12844">
        <ele>890.4</ele>
        <time>2014-06-05T10:32:55Z</time>
      </trkpt>
      <trkpt lat="47.88615" lon="7.12848">
        <ele>891.5</ele>
        <time>2014-06-05T10:32:59Z</time>
      </trkpt>
      <trkpt lat="47.88604" lon="7.12849">
        <ele>891.9</ele>
        <time>2014-06-05T10:33:02Z</time>
      </trkpt>
      <trkpt lat="47.88592" lon="7.12849">
        <ele>892.6</ele>
        <time>2014-06-05T10:33:05Z</time>
      </trkpt>
      <trkpt lat="47.88582" lon="7.12848">
        <ele>893.2</ele>
        <time>2014-06-05T10:33:08Z</time>
      </trkpt>
      <trkpt lat="47.88572" lon="7.1285">
        <ele>894.3</ele>
        <time>2014-06-05T10:33:12Z</time>
      </trkpt>
      <trkpt lat="47.8856" lon="7.1285">
        <ele>895.2</ele>
        <time>2014-06-05T10:33:16Z</time>
      </trkpt>
      <trkpt lat="47.88549" lon="7.12853">
        <ele>896.4</ele>
        <time>2014-06-05T10:33:20Z</time>
      </trkpt>
      <trkpt lat="47.88539" lon="7.1286">
        <ele>897.4</ele>
        <time>2014-06-05T10:33:24Z</time>
      </trkpt>
      <trkpt lat="47.8853" lon="7.12866">
        <ele>898.4</ele>
        <time>2014-06-05T10:33:28Z</time>
      </trkpt>
      <trkpt lat="47.8852" lon="7.12873">
        <ele>899.3</ele>
        <time>2014-06-05T10:33:33Z</time>
      </trkpt>
      <trkpt lat="47.88501" lon="7.12881">
        <ele>899.4</ele>
        <time>2014-06-05T10:33:40Z</time>
      </trkpt>
      <trkpt lat="47.88492" lon="7.1289">
        <ele>898.9</ele>
        <time>2014-06-05T10:33:43Z</time>
      </trkpt>
      <trkpt lat="47.88483" lon="7.12898">
        <ele>898.2</ele>
        <time>2014-06-05T10:33:46Z</time>
      </trkpt>
      <trkpt lat="47.88474" lon="7.12906">
        <ele>897.4</ele>
        <time>2014-06-05T10:33:50Z</time>
      </trkpt>
      <trkpt lat="47.88466" lon="7.12922">
        <ele>896.7</ele>
        <time>2014-06-05T10:33:53Z</time>
      </trkpt>
      <trkpt lat="47.88456" lon="7.12933">
        <ele>895.8</ele>
        <time>2014-06-05T10:33:56Z</time>
      </trkpt>
      <trkpt lat="47.88446" lon="7.1294">
        <ele>894.8</ele>
        <time>2014-06-05T10:33:59Z</time>
      </trkpt>
      <trkpt lat="47.88435" lon="7.12945">
        <ele>894.4</ele>
        <time>2014-06-05T10:34:01Z</time>
      </trkpt>
      <trkpt lat="47.88427" lon="7.1295">
        <ele>893.5</ele>
        <time>2014-06-05T10:34:03Z</time>
      </trkpt>
      <trkpt lat="47.88414" lon="7.12955">
        <ele>892.7</ele>
        <time>2014-06-05T10:34:06Z</time>
      </trkpt>
      <trkpt lat="47.88405" lon="7.12957">
        <ele>892</ele>
        <time>2014-06-05T10:34:08Z</time>
      </trkpt>
      <trkpt lat="47.88395" lon="7.12956">
        <ele>891.2</ele>
        <time>2014-06-05T10:34:10Z</time>
      </trkpt>
      <trkpt lat="47.88384" lon="7.12954">
        <ele>890.3</ele>
        <time>2014-06-05T10:34:12Z</time>
      </trkpt>
      <trkpt lat="47.88373" lon="7.12951">
        <ele>889.1</ele>
        <time>2014-06-05T10:34:14Z</time>
      </trkpt>
      <trkpt lat="47.88363" lon="7.12947">
        <ele>888.5</ele>
        <time>2014-06-05T10:34:16Z</time>
      </trkpt>
      <trkpt lat="47.88353" lon="7.1294">
        <ele>887.6</ele>
        <time>2014-06-05T10:34:18Z</time>
      </trkpt>
      <trkpt lat="47.88345" lon="7.12933">
        <ele>886.4</ele>
        <time>2014-06-05T10:34:20Z</time>
      </trkpt>
      <trkpt lat="47.88335" lon="7.12923">
        <ele>885.4</ele>
        <time>2014-06-05T10:34:22Z</time>
      </trkpt>
      <trkpt lat="47.88322" lon="7.12917">
        <ele>884.4</ele>
        <time>2014-06-05T10:34:24Z</time>
      </trkpt>
      <trkpt lat="47.88309" lon="7.12911">
        <ele>883.3</ele>
        <time>2014-06-05T10:34:26Z</time>
      </trkpt>
      <trkpt lat="47.88296" lon="7.12904">
        <ele>882.2</ele>
        <time>2014-06-05T10:34:28Z</time>
      </trkpt>
      <trkpt lat="47.88281" lon="7.12894">
        <ele>880.9</ele>
        <time>2014-06-05T10:34:30Z</time>
      </trkpt>
      <trkpt lat="47.88267" lon="7.12889">
        <ele>879.8</ele>
        <time>2014-06-05T10:34:32Z</time>
      </trkpt>
      <trkpt lat="47.88256" lon="7.12883">
        <ele>879.1</ele>
        <time>2014-06-05T10:34:34Z</time>
      </trkpt>
      <trkpt lat="47.88231" lon="7.12865">
        <ele>876.6</ele>
        <time>2014-06-05T10:34:38Z</time>
      </trkpt>
      <trkpt lat="47.88222" lon="7.1286">
        <ele>875.5</ele>
        <time>2014-06-05T10:34:40Z</time>
      </trkpt>
      <trkpt lat="47.8821" lon="7.1285">
        <ele>874.2</ele>
        <time>2014-06-05T10:34:42Z</time>
      </trkpt>
      <trkpt lat="47.882" lon="7.12842">
        <ele>873.1</ele>
        <time>2014-06-05T10:34:44Z</time>
      </trkpt>
      <trkpt lat="47.8819" lon="7.12834">
        <ele>872.1</ele>
        <time>2014-06-05T10:34:46Z</time>
      </trkpt>
      <trkpt lat="47.8818" lon="7.12826">
        <ele>870.9</ele>
        <time>2014-06-05T10:34:48Z</time>
      </trkpt>
      <trkpt lat="47.88169" lon="7.1282">
        <ele>869.4</ele>
        <time>2014-06-05T10:34:50Z</time>
      </trkpt>
      <trkpt lat="47.88159" lon="7.12811">
        <ele>868.4</ele>
        <time>2014-06-05T10:34:52Z</time>
      </trkpt>
      <trkpt lat="47.88148" lon="7.12805">
        <ele>867.6</ele>
        <time>2014-06-05T10:34:54Z</time>
      </trkpt>
      <trkpt lat="47.88138" lon="7.128">
        <ele>865.8</ele>
        <time>2014-06-05T10:34:57Z</time>
      </trkpt>
      <trkpt lat="47.88125" lon="7.12799">
        <ele>864.8</ele>
        <time>2014-06-05T10:35:00Z</time>
      </trkpt>
      <trkpt lat="47.88112" lon="7.12804">
        <ele>863.6</ele>
        <time>2014-06-05T10:35:03Z</time>
      </trkpt>
      <trkpt lat="47.88108" lon="7.12825">
        <ele>863</ele>
        <time>2014-06-05T10:35:05Z</time>
      </trkpt>
      <trkpt lat="47.88104" lon="7.12847">
        <ele>862</ele>
        <time>2014-06-05T10:35:08Z</time>
      </trkpt>
      <trkpt lat="47.88096" lon="7.12863">
        <ele>860.8</ele>
        <time>2014-06-05T10:35:11Z</time>
      </trkpt>
      <trkpt lat="47.8809" lon="7.12876">
        <ele>860.2</ele>
        <time>2014-06-05T10:35:13Z</time>
      </trkpt>
      <trkpt lat="47.88083" lon="7.1289">
        <ele>858.9</ele>
        <time>2014-06-05T10:35:15Z</time>
      </trkpt>
      <trkpt lat="47.88075" lon="7.12899">
        <ele>857.6</ele>
        <time>2014-06-05T10:35:17Z</time>
      </trkpt>
      <trkpt lat="47.88065" lon="7.12903">
        <ele>856.1</ele>
        <time>2014-06-05T10:35:21Z</time>
      </trkpt>
      <trkpt lat="47.88056" lon="7.12901">
        <ele>856.1</ele>
        <time>2014-06-05T10:35:25Z</time>
      </trkpt>
      <trkpt lat="47.88046" lon="7.12904">
        <ele>856.7</ele>
        <time>2014-06-05T10:35:31Z</time>
      </trkpt>
      <trkpt lat="47.88038" lon="7.12894">
        <ele>857.8</ele>
        <time>2014-06-05T10:35:53Z</time>
      </trkpt>
      <trkpt lat="47.88016" lon="7.12889">
        <ele>857.2</ele>
        <time>2014-06-05T10:36:00Z</time>
      </trkpt>
      <trkpt lat="47.88004" lon="7.12882">
        <ele>856</ele>
        <time>2014-06-05T10:36:04Z</time>
      </trkpt>
      <trkpt lat="47.87995" lon="7.12874">
        <ele>855.5</ele>
        <time>2014-06-05T10:36:06Z</time>
      </trkpt>
      <trkpt lat="47.87985" lon="7.12875">
        <ele>854.7</ele>
        <time>2014-06-05T10:36:09Z</time>
      </trkpt>
      <trkpt lat="47.87975" lon="7.12873">
        <ele>853.1</ele>
        <time>2014-06-05T10:36:15Z</time>
      </trkpt>
      <trkpt lat="47.87964" lon="7.12868">
        <ele>851.8</ele>
        <time>2014-06-05T10:36:20Z</time>
      </trkpt>
      <trkpt lat="47.87956" lon="7.1286">
        <ele>851.3</ele>
        <time>2014-06-05T10:36:22Z</time>
      </trkpt>
      <trkpt lat="47.87947" lon="7.1285">
        <ele>850.3</ele>
        <time>2014-06-05T10:36:25Z</time>
      </trkpt>
      <trkpt lat="47.87938" lon="7.12838">
        <ele>849.4</ele>
        <time>2014-06-05T10:36:29Z</time>
      </trkpt>
      <trkpt lat="47.87927" lon="7.12828">
        <ele>848.2</ele>
        <time>2014-06-05T10:36:33Z</time>
      </trkpt>
      <trkpt lat="47.87918" lon="7.12822">
        <ele>846.5</ele>
        <time>2014-06-05T10:36:37Z</time>
      </trkpt>
      <trkpt lat="47.87909" lon="7.12819">
        <ele>843.9</ele>
        <time>2014-06-05T10:36:42Z</time>
      </trkpt>
      <trkpt lat="47.87899" lon="7.12816">
        <ele>842</ele>
        <time>2014-06-05T10:36:45Z</time>
      </trkpt>
      <trkpt lat="47.87889" lon="7.12809">
        <ele>840.8</ele>
        <time>2014-06-05T10:36:48Z</time>
      </trkpt>
      <trkpt lat="47.8788" lon="7.12801">
        <ele>838.9</ele>
        <time>2014-06-05T10:36:52Z</time>
      </trkpt>
      <trkpt lat="47.87871" lon="7.12796">
        <ele>837.4</ele>
        <time>2014-06-05T10:36:56Z</time>
      </trkpt>
      <trkpt lat="47.87853" lon="7.12784">
        <ele>835</ele>
        <time>2014-06-05T10:37:04Z</time>
      </trkpt>
      <trkpt lat="47.87843" lon="7.12781">
        <ele>833.3</ele>
        <time>2014-06-05T10:37:08Z</time>
      </trkpt>
      <trkpt lat="47.8783" lon="7.12767">
        <ele>831.9</ele>
        <time>2014-06-05T10:37:11Z</time>
      </trkpt>
      <trkpt lat="47.8782" lon="7.12761">
        <ele>831.2</ele>
        <time>2014-06-05T10:37:13Z</time>
      </trkpt>
      <trkpt lat="47.87808" lon="7.12755">
        <ele>830.3</ele>
        <time>2014-06-05T10:37:16Z</time>
      </trkpt>
      <trkpt lat="47.87799" lon="7.12752">
        <ele>829.3</ele>
        <time>2014-06-05T10:37:19Z</time>
      </trkpt>
      <trkpt lat="47.87788" lon="7.12748">
        <ele>828.2</ele>
        <time>2014-06-05T10:37:22Z</time>
      </trkpt>
      <trkpt lat="47.87779" lon="7.12746">
        <ele>827.3</ele>
        <time>2014-06-05T10:37:24Z</time>
      </trkpt>
      <trkpt lat="47.87769" lon="7.12743">
        <ele>826.2</ele>
        <time>2014-06-05T10:37:26Z</time>
      </trkpt>
      <trkpt lat="47.87756" lon="7.12735">
        <ele>824.8</ele>
        <time>2014-06-05T10:37:29Z</time>
      </trkpt>
      <trkpt lat="47.87744" lon="7.12729">
        <ele>823.8</ele>
        <time>2014-06-05T10:37:32Z</time>
      </trkpt>
      <trkpt lat="47.87733" lon="7.1273">
        <ele>823.1</ele>
        <time>2014-06-05T10:37:34Z</time>
      </trkpt>
      <trkpt lat="47.87724" lon="7.12734">
        <ele>822.3</ele>
        <time>2014-06-05T10:37:36Z</time>
      </trkpt>
      <trkpt lat="47.87715" lon="7.12745">
        <ele>822.6</ele>
        <time>2014-06-05T10:37:39Z</time>
      </trkpt>
      <trkpt lat="47.87706" lon="7.12755">
        <ele>822.3</ele>
        <time>2014-06-05T10:37:43Z</time>
      </trkpt>
      <trkpt lat="47.87697" lon="7.1276">
        <ele>822.9</ele>
        <time>2014-06-05T10:37:47Z</time>
      </trkpt>
      <trkpt lat="47.87688" lon="7.12762">
        <ele>822.7</ele>
        <time>2014-06-05T10:37:50Z</time>
      </trkpt>
      <trkpt lat="47.87677" lon="7.12761">
        <ele>822</ele>
        <time>2014-06-05T10:37:54Z</time>
      </trkpt>
      <trkpt lat="47.87665" lon="7.12758">
        <ele>820.3</ele>
        <time>2014-06-05T10:37:58Z</time>
      </trkpt>
      <trkpt lat="47.87644" lon="7.1275">
        <ele>818.9</ele>
        <time>2014-06-05T10:38:02Z</time>
      </trkpt>
      <trkpt lat="47.87632" lon="7.12744">
        <ele>817.4</ele>
        <time>2014-06-05T10:38:05Z</time>
      </trkpt>
      <trkpt lat="47.87621" lon="7.12738">
        <ele>816.5</ele>
        <time>2014-06-05T10:38:08Z</time>
      </trkpt>
      <trkpt lat="47.87613" lon="7.12721">
        <ele>815.6</ele>
        <time>2014-06-05T10:38:11Z</time>
      </trkpt>
      <trkpt lat="47.87605" lon="7.12716">
        <ele>814.4</ele>
        <time>2014-06-05T10:38:15Z</time>
      </trkpt>
      <trkpt lat="47.87594" lon="7.12717">
        <ele>813.4</ele>
        <time>2014-06-05T10:38:17Z</time>
      </trkpt>
      <trkpt lat="47.87585" lon="7.12717">
        <ele>812.3</ele>
        <time>2014-06-05T10:38:19Z</time>
      </trkpt>
      <trkpt lat="47.87574" lon="7.12717">
        <ele>809.8</ele>
        <time>2014-06-05T10:38:22Z</time>
      </trkpt>
      <trkpt lat="47.87562" lon="7.12728">
        <ele>808.3</ele>
        <time>2014-06-05T10:38:25Z</time>
      </trkpt>
      <trkpt lat="47.87557" lon="7.12741">
        <ele>807.3</ele>
        <time>2014-06-05T10:38:27Z</time>
      </trkpt>
      <trkpt lat="47.87557" lon="7.12755">
        <ele>805.8</ele>
        <time>2014-06-05T10:38:30Z</time>
      </trkpt>
      <trkpt lat="47.87556" lon="7.1274">
        <ele>818.8</ele>
        <time>2014-06-05T10:50:35Z</time>
      </trkpt>
      <trkpt lat="47.87574" lon="7.12705">
        <ele>819.3</ele>
        <time>2014-06-05T10:50:40Z</time>
      </trkpt>
      <trkpt lat="47.87587" lon="7.12689">
        <ele>821</ele>
        <time>2014-06-05T10:50:42Z</time>
      </trkpt>
      <trkpt lat="47.87596" lon="7.12683">
        <ele>821.7</ele>
        <time>2014-06-05T10:50:43Z</time>
      </trkpt>
      <trkpt lat="47.87606" lon="7.12678">
        <ele>822.4</ele>
        <time>2014-06-05T10:50:44Z</time>
      </trkpt>
      <trkpt lat="47.87616" lon="7.12673">
        <ele>823.2</ele>
        <time>2014-06-05T10:50:45Z</time>
      </trkpt>
      <trkpt lat="47.87626" lon="7.1267">
        <ele>823.9</ele>
        <time>2014-06-05T10:50:46Z</time>
      </trkpt>
      <trkpt lat="47.87638" lon="7.12667">
        <ele>824.6</ele>
        <time>2014-06-05T10:50:47Z</time>
      </trkpt>
      <trkpt lat="47.8765" lon="7.12665">
        <ele>825.7</ele>
        <time>2014-06-05T10:50:48Z</time>
      </trkpt>
      <trkpt lat="47.8765" lon="7.12665">
        <ele>825.7</ele>
        <time>2014-06-05T10:50:48Z</time>
      </trkpt>
    </trkseg>
  </trk>
</gpx>